<?xml version="1.0" encoding="UTF-8" standalone="no" ?>
<gpx xmlns="http://www.topografix.com/GPX/1/1" xmlns:xsi="http://www.w3.org/2001/XMLSchema-instance" xsi:schemaLocation="http://www.topografix.com/GPX/1/1 http://www.topografix.com/GPX/1/1/gpx.xsd" version="1.1" creator="VisuGPX - https://www.visugpx.com">
  <metadata>
    <name>83-Me-Flayosc</name>
    <desc><![CDATA[83-Me-Flayosc : Peire Aiguille, le Figueret, les Peylons
2024-11-20-CMHC]]></desc>
  </metadata>
  <trk>
    <name><![CDATA[2024-11-20-Me-Flayosc]]></name>
    <extensions>
      <line xmlns="http://www.topografix.com/GPX/gpx_style/0/2">
        <width>4</width>
      </line>
    </extensions>
    <trkseg>
      <trkpt lat="43.53536" lon="6.39219">
        <ele>333.2</ele>
        <time>2024-11-20T12:54:13.000Z</time>
      </trkpt>
      <trkpt lat="43.5354" lon="6.39196">
        <ele>335.2</ele>
        <time>2024-11-20T12:54:53.000Z</time>
      </trkpt>
      <trkpt lat="43.53533" lon="6.39202">
        <ele>334.5</ele>
        <time>2024-11-20T12:55:05.000Z</time>
      </trkpt>
      <trkpt lat="43.53528" lon="6.39212">
        <ele>334.8</ele>
        <time>2024-11-20T12:55:14.000Z</time>
      </trkpt>
      <trkpt lat="43.53528" lon="6.39213">
        <ele>334.8</ele>
        <time>2024-11-20T12:55:15.000Z</time>
      </trkpt>
      <trkpt lat="43.53518" lon="6.3923">
        <ele>335.1</ele>
        <time>2024-11-20T12:55:31.000Z</time>
      </trkpt>
      <trkpt lat="43.53514" lon="6.39239">
        <ele>335.1</ele>
        <time>2024-11-20T12:55:39.000Z</time>
      </trkpt>
      <trkpt lat="43.53509" lon="6.3925">
        <ele>335.3</ele>
        <time>2024-11-20T12:55:47.000Z</time>
      </trkpt>
      <trkpt lat="43.53505" lon="6.39259">
        <ele>335.4</ele>
        <time>2024-11-20T12:55:54.000Z</time>
      </trkpt>
      <trkpt lat="43.535" lon="6.3927">
        <ele>334.6</ele>
        <time>2024-11-20T12:56:02.000Z</time>
      </trkpt>
      <trkpt lat="43.53496" lon="6.3928">
        <ele>334.2</ele>
        <time>2024-11-20T12:56:10.000Z</time>
      </trkpt>
      <trkpt lat="43.53492" lon="6.39291">
        <ele>334.4</ele>
        <time>2024-11-20T12:56:19.000Z</time>
      </trkpt>
      <trkpt lat="43.53491" lon="6.39292">
        <ele>334.4</ele>
        <time>2024-11-20T12:56:20.000Z</time>
      </trkpt>
      <trkpt lat="43.53485" lon="6.39312">
        <ele>333.9</ele>
        <time>2024-11-20T12:56:34.000Z</time>
      </trkpt>
      <trkpt lat="43.53481" lon="6.39322">
        <ele>333.3</ele>
        <time>2024-11-20T12:56:41.000Z</time>
      </trkpt>
      <trkpt lat="43.53479" lon="6.39333">
        <ele>333.4</ele>
        <time>2024-11-20T12:56:48.000Z</time>
      </trkpt>
      <trkpt lat="43.53478" lon="6.39345">
        <ele>333.5</ele>
        <time>2024-11-20T12:56:57.000Z</time>
      </trkpt>
      <trkpt lat="43.53477" lon="6.39358">
        <ele>333.4</ele>
        <time>2024-11-20T12:57:05.000Z</time>
      </trkpt>
      <trkpt lat="43.53476" lon="6.3937">
        <ele>332.8</ele>
        <time>2024-11-20T12:57:17.000Z</time>
      </trkpt>
      <trkpt lat="43.53484" lon="6.39375">
        <ele>330.2</ele>
        <time>2024-11-20T12:57:41.000Z</time>
      </trkpt>
      <trkpt lat="43.53485" lon="6.39375">
        <ele>330</ele>
        <time>2024-11-20T12:57:42.000Z</time>
      </trkpt>
      <trkpt lat="43.535" lon="6.39385">
        <ele>327.8</ele>
        <time>2024-11-20T12:57:55.000Z</time>
      </trkpt>
      <trkpt lat="43.53505" lon="6.39394">
        <ele>326.2</ele>
        <time>2024-11-20T12:58:02.000Z</time>
      </trkpt>
      <trkpt lat="43.53509" lon="6.39405">
        <ele>324.3</ele>
        <time>2024-11-20T12:58:11.000Z</time>
      </trkpt>
      <trkpt lat="43.53515" lon="6.39398">
        <ele>323</ele>
        <time>2024-11-20T12:58:20.000Z</time>
      </trkpt>
      <trkpt lat="43.5352" lon="6.39389">
        <ele>321.6</ele>
        <time>2024-11-20T12:58:29.000Z</time>
      </trkpt>
      <trkpt lat="43.53526" lon="6.3938">
        <ele>320.5</ele>
        <time>2024-11-20T12:58:38.000Z</time>
      </trkpt>
      <trkpt lat="43.53531" lon="6.39369">
        <ele>319.8</ele>
        <time>2024-11-20T12:58:46.000Z</time>
      </trkpt>
      <trkpt lat="43.53531" lon="6.39368">
        <ele>319.7</ele>
        <time>2024-11-20T12:58:47.000Z</time>
      </trkpt>
      <trkpt lat="43.53541" lon="6.39353">
        <ele>318.8</ele>
        <time>2024-11-20T12:59:00.000Z</time>
      </trkpt>
      <trkpt lat="43.53548" lon="6.39347">
        <ele>318</ele>
        <time>2024-11-20T12:59:07.000Z</time>
      </trkpt>
      <trkpt lat="43.53552" lon="6.39338">
        <ele>317.1</ele>
        <time>2024-11-20T12:59:18.000Z</time>
      </trkpt>
      <trkpt lat="43.53559" lon="6.39332">
        <ele>317.1</ele>
        <time>2024-11-20T12:59:22.000Z</time>
      </trkpt>
      <trkpt lat="43.53566" lon="6.39328">
        <ele>317</ele>
        <time>2024-11-20T12:59:28.000Z</time>
      </trkpt>
      <trkpt lat="43.53574" lon="6.39325">
        <ele>316.9</ele>
        <time>2024-11-20T12:59:33.000Z</time>
      </trkpt>
      <trkpt lat="43.53581" lon="6.3932">
        <ele>316.8</ele>
        <time>2024-11-20T12:59:38.000Z</time>
      </trkpt>
      <trkpt lat="43.53589" lon="6.39316">
        <ele>316.7</ele>
        <time>2024-11-20T12:59:45.000Z</time>
      </trkpt>
      <trkpt lat="43.53598" lon="6.39313">
        <ele>316.8</ele>
        <time>2024-11-20T12:59:52.000Z</time>
      </trkpt>
      <trkpt lat="43.53599" lon="6.39312">
        <ele>316.8</ele>
        <time>2024-11-20T12:59:53.000Z</time>
      </trkpt>
      <trkpt lat="43.53613" lon="6.39306">
        <ele>316.9</ele>
        <time>2024-11-20T13:00:06.000Z</time>
      </trkpt>
      <trkpt lat="43.53621" lon="6.39302">
        <ele>316.9</ele>
        <time>2024-11-20T13:00:13.000Z</time>
      </trkpt>
      <trkpt lat="43.53629" lon="6.39297">
        <ele>317.1</ele>
        <time>2024-11-20T13:00:20.000Z</time>
      </trkpt>
      <trkpt lat="43.53637" lon="6.39293">
        <ele>317.6</ele>
        <time>2024-11-20T13:00:27.000Z</time>
      </trkpt>
      <trkpt lat="43.53644" lon="6.39288">
        <ele>318.2</ele>
        <time>2024-11-20T13:00:34.000Z</time>
      </trkpt>
      <trkpt lat="43.53652" lon="6.39284">
        <ele>318.5</ele>
        <time>2024-11-20T13:00:41.000Z</time>
      </trkpt>
      <trkpt lat="43.53659" lon="6.39279">
        <ele>318.7</ele>
        <time>2024-11-20T13:00:49.000Z</time>
      </trkpt>
      <trkpt lat="43.53668" lon="6.39274">
        <ele>319</ele>
        <time>2024-11-20T13:00:57.000Z</time>
      </trkpt>
      <trkpt lat="43.53669" lon="6.39274">
        <ele>319</ele>
        <time>2024-11-20T13:00:58.000Z</time>
      </trkpt>
      <trkpt lat="43.53684" lon="6.39281">
        <ele>318.8</ele>
        <time>2024-11-20T13:01:15.000Z</time>
      </trkpt>
      <trkpt lat="43.53693" lon="6.39282">
        <ele>318</ele>
        <time>2024-11-20T13:01:23.000Z</time>
      </trkpt>
      <trkpt lat="43.53701" lon="6.3928">
        <ele>317.1</ele>
        <time>2024-11-20T13:01:31.000Z</time>
      </trkpt>
      <trkpt lat="43.53709" lon="6.39275">
        <ele>315.7</ele>
        <time>2024-11-20T13:01:38.000Z</time>
      </trkpt>
      <trkpt lat="43.53715" lon="6.39269">
        <ele>314.2</ele>
        <time>2024-11-20T13:01:45.000Z</time>
      </trkpt>
      <trkpt lat="43.53722" lon="6.39262">
        <ele>313.2</ele>
        <time>2024-11-20T13:01:52.000Z</time>
      </trkpt>
      <trkpt lat="43.5373" lon="6.3926">
        <ele>312.3</ele>
        <time>2024-11-20T13:01:58.000Z</time>
      </trkpt>
      <trkpt lat="43.53732" lon="6.3926">
        <ele>312.2</ele>
        <time>2024-11-20T13:01:59.000Z</time>
      </trkpt>
      <trkpt lat="43.53746" lon="6.39269">
        <ele>311</ele>
        <time>2024-11-20T13:02:10.000Z</time>
      </trkpt>
      <trkpt lat="43.53753" lon="6.39273">
        <ele>310.9</ele>
        <time>2024-11-20T13:02:17.000Z</time>
      </trkpt>
      <trkpt lat="43.53761" lon="6.39276">
        <ele>310.8</ele>
        <time>2024-11-20T13:02:23.000Z</time>
      </trkpt>
      <trkpt lat="43.53769" lon="6.39279">
        <ele>311.3</ele>
        <time>2024-11-20T13:02:29.000Z</time>
      </trkpt>
      <trkpt lat="43.53777" lon="6.39281">
        <ele>311.5</ele>
        <time>2024-11-20T13:02:35.000Z</time>
      </trkpt>
      <trkpt lat="43.53786" lon="6.39282">
        <ele>310.9</ele>
        <time>2024-11-20T13:02:42.000Z</time>
      </trkpt>
      <trkpt lat="43.53794" lon="6.39284">
        <ele>311.5</ele>
        <time>2024-11-20T13:02:49.000Z</time>
      </trkpt>
      <trkpt lat="43.53802" lon="6.39288">
        <ele>311.6</ele>
        <time>2024-11-20T13:02:56.000Z</time>
      </trkpt>
      <trkpt lat="43.53811" lon="6.39291">
        <ele>311.8</ele>
        <time>2024-11-20T13:03:04.000Z</time>
      </trkpt>
      <trkpt lat="43.53812" lon="6.39292">
        <ele>311.8</ele>
        <time>2024-11-20T13:03:05.000Z</time>
      </trkpt>
      <trkpt lat="43.53826" lon="6.39302">
        <ele>313.3</ele>
        <time>2024-11-20T13:03:19.000Z</time>
      </trkpt>
      <trkpt lat="43.53833" lon="6.39309">
        <ele>313.8</ele>
        <time>2024-11-20T13:03:26.000Z</time>
      </trkpt>
      <trkpt lat="43.5384" lon="6.39315">
        <ele>314.1</ele>
        <time>2024-11-20T13:03:33.000Z</time>
      </trkpt>
      <trkpt lat="43.53847" lon="6.39321">
        <ele>314.3</ele>
        <time>2024-11-20T13:03:40.000Z</time>
      </trkpt>
      <trkpt lat="43.53855" lon="6.39326">
        <ele>314.4</ele>
        <time>2024-11-20T13:03:47.000Z</time>
      </trkpt>
      <trkpt lat="43.53863" lon="6.39329">
        <ele>314.5</ele>
        <time>2024-11-20T13:03:54.000Z</time>
      </trkpt>
      <trkpt lat="43.53871" lon="6.39334">
        <ele>314.9</ele>
        <time>2024-11-20T13:04:02.000Z</time>
      </trkpt>
      <trkpt lat="43.5388" lon="6.39336">
        <ele>315.2</ele>
        <time>2024-11-20T13:04:10.000Z</time>
      </trkpt>
      <trkpt lat="43.53881" lon="6.39336">
        <ele>315.2</ele>
        <time>2024-11-20T13:04:11.000Z</time>
      </trkpt>
      <trkpt lat="43.53896" lon="6.39329">
        <ele>315.7</ele>
        <time>2024-11-20T13:04:26.000Z</time>
      </trkpt>
      <trkpt lat="43.53904" lon="6.39325">
        <ele>316.5</ele>
        <time>2024-11-20T13:04:34.000Z</time>
      </trkpt>
      <trkpt lat="43.53911" lon="6.39321">
        <ele>317.2</ele>
        <time>2024-11-20T13:04:41.000Z</time>
      </trkpt>
      <trkpt lat="43.5392" lon="6.39317">
        <ele>317.7</ele>
        <time>2024-11-20T13:04:49.000Z</time>
      </trkpt>
      <trkpt lat="43.53928" lon="6.39313">
        <ele>319.6</ele>
        <time>2024-11-20T13:05:04.000Z</time>
      </trkpt>
      <trkpt lat="43.53936" lon="6.39309">
        <ele>320</ele>
        <time>2024-11-20T13:05:11.000Z</time>
      </trkpt>
      <trkpt lat="43.53937" lon="6.39309">
        <ele>320</ele>
        <time>2024-11-20T13:05:12.000Z</time>
      </trkpt>
      <trkpt lat="43.53951" lon="6.39304">
        <ele>320.3</ele>
        <time>2024-11-20T13:05:24.000Z</time>
      </trkpt>
      <trkpt lat="43.53959" lon="6.39303">
        <ele>320.2</ele>
        <time>2024-11-20T13:05:32.000Z</time>
      </trkpt>
      <trkpt lat="43.53968" lon="6.39301">
        <ele>320.2</ele>
        <time>2024-11-20T13:05:41.000Z</time>
      </trkpt>
      <trkpt lat="43.53976" lon="6.39301">
        <ele>321.1</ele>
        <time>2024-11-20T13:05:51.000Z</time>
      </trkpt>
      <trkpt lat="43.53984" lon="6.39303">
        <ele>319.9</ele>
        <time>2024-11-20T13:06:01.000Z</time>
      </trkpt>
      <trkpt lat="43.53993" lon="6.39303">
        <ele>319.9</ele>
        <time>2024-11-20T13:06:09.000Z</time>
      </trkpt>
      <trkpt lat="43.54001" lon="6.39299">
        <ele>320</ele>
        <time>2024-11-20T13:06:17.000Z</time>
      </trkpt>
      <trkpt lat="43.54001" lon="6.39299">
        <ele>319.9</ele>
        <time>2024-11-20T13:06:18.000Z</time>
      </trkpt>
      <trkpt lat="43.54017" lon="6.39293">
        <ele>319.1</ele>
        <time>2024-11-20T13:06:33.000Z</time>
      </trkpt>
      <trkpt lat="43.54025" lon="6.3929">
        <ele>318.4</ele>
        <time>2024-11-20T13:06:40.000Z</time>
      </trkpt>
      <trkpt lat="43.54033" lon="6.39286">
        <ele>317.5</ele>
        <time>2024-11-20T13:06:49.000Z</time>
      </trkpt>
      <trkpt lat="43.54042" lon="6.39283">
        <ele>316.3</ele>
        <time>2024-11-20T13:06:57.000Z</time>
      </trkpt>
      <trkpt lat="43.5405" lon="6.39281">
        <ele>315.3</ele>
        <time>2024-11-20T13:07:06.000Z</time>
      </trkpt>
      <trkpt lat="43.54059" lon="6.39281">
        <ele>315</ele>
        <time>2024-11-20T13:07:13.000Z</time>
      </trkpt>
      <trkpt lat="43.54067" lon="6.39281">
        <ele>315.5</ele>
        <time>2024-11-20T13:07:23.000Z</time>
      </trkpt>
      <trkpt lat="43.54068" lon="6.39281">
        <ele>315.5</ele>
        <time>2024-11-20T13:07:24.000Z</time>
      </trkpt>
      <trkpt lat="43.54082" lon="6.39291">
        <ele>314.3</ele>
        <time>2024-11-20T13:07:39.000Z</time>
      </trkpt>
      <trkpt lat="43.54086" lon="6.39301">
        <ele>314.6</ele>
        <time>2024-11-20T13:07:47.000Z</time>
      </trkpt>
      <trkpt lat="43.54092" lon="6.39309">
        <ele>314.9</ele>
        <time>2024-11-20T13:07:54.000Z</time>
      </trkpt>
      <trkpt lat="43.541" lon="6.39313">
        <ele>315.4</ele>
        <time>2024-11-20T13:08:02.000Z</time>
      </trkpt>
      <trkpt lat="43.54108" lon="6.39316">
        <ele>316.5</ele>
        <time>2024-11-20T13:08:13.000Z</time>
      </trkpt>
      <trkpt lat="43.54115" lon="6.39323">
        <ele>317.6</ele>
        <time>2024-11-20T13:08:23.000Z</time>
      </trkpt>
      <trkpt lat="43.54123" lon="6.39329">
        <ele>318.1</ele>
        <time>2024-11-20T13:08:30.000Z</time>
      </trkpt>
      <trkpt lat="43.54124" lon="6.3933">
        <ele>318.2</ele>
        <time>2024-11-20T13:08:31.000Z</time>
      </trkpt>
      <trkpt lat="43.54137" lon="6.39341">
        <ele>318.7</ele>
        <time>2024-11-20T13:08:44.000Z</time>
      </trkpt>
      <trkpt lat="43.54144" lon="6.39347">
        <ele>318.5</ele>
        <time>2024-11-20T13:08:52.000Z</time>
      </trkpt>
      <trkpt lat="43.5415" lon="6.39353">
        <ele>319.2</ele>
        <time>2024-11-20T13:08:58.000Z</time>
      </trkpt>
      <trkpt lat="43.54157" lon="6.39361">
        <ele>320.5</ele>
        <time>2024-11-20T13:09:06.000Z</time>
      </trkpt>
      <trkpt lat="43.54163" lon="6.39369">
        <ele>321.1</ele>
        <time>2024-11-20T13:09:14.000Z</time>
      </trkpt>
      <trkpt lat="43.5417" lon="6.39377">
        <ele>321.2</ele>
        <time>2024-11-20T13:09:22.000Z</time>
      </trkpt>
      <trkpt lat="43.54177" lon="6.39383">
        <ele>321.3</ele>
        <time>2024-11-20T13:09:29.000Z</time>
      </trkpt>
      <trkpt lat="43.54185" lon="6.39389">
        <ele>321.5</ele>
        <time>2024-11-20T13:09:38.000Z</time>
      </trkpt>
      <trkpt lat="43.54185" lon="6.3939">
        <ele>321.6</ele>
        <time>2024-11-20T13:09:39.000Z</time>
      </trkpt>
      <trkpt lat="43.54194" lon="6.39407">
        <ele>323.3</ele>
        <time>2024-11-20T13:09:53.000Z</time>
      </trkpt>
      <trkpt lat="43.542" lon="6.39416">
        <ele>323.6</ele>
        <time>2024-11-20T13:10:00.000Z</time>
      </trkpt>
      <trkpt lat="43.54206" lon="6.39425">
        <ele>323.8</ele>
        <time>2024-11-20T13:10:09.000Z</time>
      </trkpt>
      <trkpt lat="43.54213" lon="6.39432">
        <ele>323.9</ele>
        <time>2024-11-20T13:10:16.000Z</time>
      </trkpt>
      <trkpt lat="43.5422" lon="6.39437">
        <ele>323.7</ele>
        <time>2024-11-20T13:10:25.000Z</time>
      </trkpt>
      <trkpt lat="43.54228" lon="6.39441">
        <ele>324.1</ele>
        <time>2024-11-20T13:10:31.000Z</time>
      </trkpt>
      <trkpt lat="43.54236" lon="6.39442">
        <ele>324.1</ele>
        <time>2024-11-20T13:10:38.000Z</time>
      </trkpt>
      <trkpt lat="43.54245" lon="6.39441">
        <ele>324.7</ele>
        <time>2024-11-20T13:10:46.000Z</time>
      </trkpt>
      <trkpt lat="43.54246" lon="6.39441">
        <ele>324.9</ele>
        <time>2024-11-20T13:10:47.000Z</time>
      </trkpt>
      <trkpt lat="43.54261" lon="6.39446">
        <ele>327.2</ele>
        <time>2024-11-20T13:11:03.000Z</time>
      </trkpt>
      <trkpt lat="43.54267" lon="6.39455">
        <ele>328.5</ele>
        <time>2024-11-20T13:11:13.000Z</time>
      </trkpt>
      <trkpt lat="43.5427" lon="6.39465">
        <ele>329.1</ele>
        <time>2024-11-20T13:11:21.000Z</time>
      </trkpt>
      <trkpt lat="43.54275" lon="6.39475">
        <ele>329.5</ele>
        <time>2024-11-20T13:11:28.000Z</time>
      </trkpt>
      <trkpt lat="43.54279" lon="6.39483">
        <ele>329.8</ele>
        <time>2024-11-20T13:11:34.000Z</time>
      </trkpt>
      <trkpt lat="43.54284" lon="6.39493">
        <ele>330</ele>
        <time>2024-11-20T13:11:40.000Z</time>
      </trkpt>
      <trkpt lat="43.54289" lon="6.39502">
        <ele>330.2</ele>
        <time>2024-11-20T13:11:47.000Z</time>
      </trkpt>
      <trkpt lat="43.54293" lon="6.39512">
        <ele>330.3</ele>
        <time>2024-11-20T13:11:53.000Z</time>
      </trkpt>
      <trkpt lat="43.54294" lon="6.39513">
        <ele>330.3</ele>
        <time>2024-11-20T13:11:54.000Z</time>
      </trkpt>
      <trkpt lat="43.54303" lon="6.3953">
        <ele>331.3</ele>
        <time>2024-11-20T13:12:06.000Z</time>
      </trkpt>
      <trkpt lat="43.54307" lon="6.3954">
        <ele>331.9</ele>
        <time>2024-11-20T13:12:13.000Z</time>
      </trkpt>
      <trkpt lat="43.54311" lon="6.3955">
        <ele>332.5</ele>
        <time>2024-11-20T13:12:20.000Z</time>
      </trkpt>
      <trkpt lat="43.54315" lon="6.39559">
        <ele>333.3</ele>
        <time>2024-11-20T13:12:27.000Z</time>
      </trkpt>
      <trkpt lat="43.54319" lon="6.39569">
        <ele>333.6</ele>
        <time>2024-11-20T13:12:35.000Z</time>
      </trkpt>
      <trkpt lat="43.54322" lon="6.39581">
        <ele>335.7</ele>
        <time>2024-11-20T13:12:44.000Z</time>
      </trkpt>
      <trkpt lat="43.54326" lon="6.39592">
        <ele>337.5</ele>
        <time>2024-11-20T13:12:52.000Z</time>
      </trkpt>
      <trkpt lat="43.5433" lon="6.39602">
        <ele>338.9</ele>
        <time>2024-11-20T13:13:00.000Z</time>
      </trkpt>
      <trkpt lat="43.5433" lon="6.39604">
        <ele>339.1</ele>
        <time>2024-11-20T13:13:01.000Z</time>
      </trkpt>
      <trkpt lat="43.54337" lon="6.39624">
        <ele>341.3</ele>
        <time>2024-11-20T13:13:24.000Z</time>
      </trkpt>
      <trkpt lat="43.54342" lon="6.39634">
        <ele>341.8</ele>
        <time>2024-11-20T13:13:34.000Z</time>
      </trkpt>
      <trkpt lat="43.54345" lon="6.39645">
        <ele>342.3</ele>
        <time>2024-11-20T13:13:44.000Z</time>
      </trkpt>
      <trkpt lat="43.54354" lon="6.39646">
        <ele>342.6</ele>
        <time>2024-11-20T13:15:29.000Z</time>
      </trkpt>
      <trkpt lat="43.54354" lon="6.39647">
        <ele>342.6</ele>
        <time>2024-11-20T13:15:30.000Z</time>
      </trkpt>
      <trkpt lat="43.54371" lon="6.39649">
        <ele>340.7</ele>
        <time>2024-11-20T13:15:51.000Z</time>
      </trkpt>
      <trkpt lat="43.54379" lon="6.39648">
        <ele>339.9</ele>
        <time>2024-11-20T13:16:01.000Z</time>
      </trkpt>
      <trkpt lat="43.54387" lon="6.39643">
        <ele>338.9</ele>
        <time>2024-11-20T13:16:08.000Z</time>
      </trkpt>
      <trkpt lat="43.54395" lon="6.39639">
        <ele>338.1</ele>
        <time>2024-11-20T13:16:16.000Z</time>
      </trkpt>
      <trkpt lat="43.54401" lon="6.39631">
        <ele>337.7</ele>
        <time>2024-11-20T13:16:23.000Z</time>
      </trkpt>
      <trkpt lat="43.54408" lon="6.39625">
        <ele>337.1</ele>
        <time>2024-11-20T13:16:30.000Z</time>
      </trkpt>
      <trkpt lat="43.54409" lon="6.39624">
        <ele>337</ele>
        <time>2024-11-20T13:16:31.000Z</time>
      </trkpt>
      <trkpt lat="43.54422" lon="6.39612">
        <ele>335.7</ele>
        <time>2024-11-20T13:16:45.000Z</time>
      </trkpt>
      <trkpt lat="43.54429" lon="6.39605">
        <ele>335.3</ele>
        <time>2024-11-20T13:16:52.000Z</time>
      </trkpt>
      <trkpt lat="43.54436" lon="6.396">
        <ele>335.1</ele>
        <time>2024-11-20T13:16:59.000Z</time>
      </trkpt>
      <trkpt lat="43.54445" lon="6.39596">
        <ele>335</ele>
        <time>2024-11-20T13:17:07.000Z</time>
      </trkpt>
      <trkpt lat="43.54453" lon="6.39591">
        <ele>334.9</ele>
        <time>2024-11-20T13:17:13.000Z</time>
      </trkpt>
      <trkpt lat="43.54461" lon="6.39587">
        <ele>335.1</ele>
        <time>2024-11-20T13:17:19.000Z</time>
      </trkpt>
      <trkpt lat="43.54468" lon="6.39583">
        <ele>335.3</ele>
        <time>2024-11-20T13:17:26.000Z</time>
      </trkpt>
      <trkpt lat="43.54476" lon="6.39578">
        <ele>335.3</ele>
        <time>2024-11-20T13:17:34.000Z</time>
      </trkpt>
      <trkpt lat="43.54477" lon="6.39577">
        <ele>335.3</ele>
        <time>2024-11-20T13:17:35.000Z</time>
      </trkpt>
      <trkpt lat="43.54491" lon="6.39566">
        <ele>334.7</ele>
        <time>2024-11-20T13:17:48.000Z</time>
      </trkpt>
      <trkpt lat="43.54497" lon="6.39559">
        <ele>335.1</ele>
        <time>2024-11-20T13:17:56.000Z</time>
      </trkpt>
      <trkpt lat="43.54503" lon="6.3955">
        <ele>335</ele>
        <time>2024-11-20T13:18:02.000Z</time>
      </trkpt>
      <trkpt lat="43.54508" lon="6.3954">
        <ele>334.7</ele>
        <time>2024-11-20T13:18:09.000Z</time>
      </trkpt>
      <trkpt lat="43.54514" lon="6.39532">
        <ele>334.3</ele>
        <time>2024-11-20T13:18:15.000Z</time>
      </trkpt>
      <trkpt lat="43.54521" lon="6.39524">
        <ele>333.8</ele>
        <time>2024-11-20T13:18:22.000Z</time>
      </trkpt>
      <trkpt lat="43.54528" lon="6.39517">
        <ele>333.1</ele>
        <time>2024-11-20T13:18:29.000Z</time>
      </trkpt>
      <trkpt lat="43.54535" lon="6.3951">
        <ele>332.8</ele>
        <time>2024-11-20T13:18:37.000Z</time>
      </trkpt>
      <trkpt lat="43.54536" lon="6.3951">
        <ele>332.9</ele>
        <time>2024-11-20T13:18:38.000Z</time>
      </trkpt>
      <trkpt lat="43.54549" lon="6.39497">
        <ele>333</ele>
        <time>2024-11-20T13:18:52.000Z</time>
      </trkpt>
      <trkpt lat="43.54556" lon="6.3949">
        <ele>332.6</ele>
        <time>2024-11-20T13:18:58.000Z</time>
      </trkpt>
      <trkpt lat="43.54562" lon="6.39482">
        <ele>332.4</ele>
        <time>2024-11-20T13:19:05.000Z</time>
      </trkpt>
      <trkpt lat="43.54569" lon="6.39474">
        <ele>332.4</ele>
        <time>2024-11-20T13:19:12.000Z</time>
      </trkpt>
      <trkpt lat="43.54576" lon="6.3947">
        <ele>333</ele>
        <time>2024-11-20T13:19:18.000Z</time>
      </trkpt>
      <trkpt lat="43.54584" lon="6.39465">
        <ele>333.5</ele>
        <time>2024-11-20T13:19:24.000Z</time>
      </trkpt>
      <trkpt lat="43.54591" lon="6.3946">
        <ele>333.8</ele>
        <time>2024-11-20T13:19:31.000Z</time>
      </trkpt>
      <trkpt lat="43.54599" lon="6.39454">
        <ele>334.2</ele>
        <time>2024-11-20T13:19:38.000Z</time>
      </trkpt>
      <trkpt lat="43.54599" lon="6.39453">
        <ele>334.3</ele>
        <time>2024-11-20T13:19:39.000Z</time>
      </trkpt>
      <trkpt lat="43.54614" lon="6.39444">
        <ele>337.2</ele>
        <time>2024-11-20T13:19:56.000Z</time>
      </trkpt>
      <trkpt lat="43.54622" lon="6.3944">
        <ele>338.3</ele>
        <time>2024-11-20T13:20:05.000Z</time>
      </trkpt>
      <trkpt lat="43.54628" lon="6.39431">
        <ele>339.4</ele>
        <time>2024-11-20T13:20:13.000Z</time>
      </trkpt>
      <trkpt lat="43.54632" lon="6.39422">
        <ele>339.8</ele>
        <time>2024-11-20T13:20:20.000Z</time>
      </trkpt>
      <trkpt lat="43.54637" lon="6.39413">
        <ele>339.5</ele>
        <time>2024-11-20T13:20:28.000Z</time>
      </trkpt>
      <trkpt lat="43.54643" lon="6.39404">
        <ele>339.6</ele>
        <time>2024-11-20T13:20:35.000Z</time>
      </trkpt>
      <trkpt lat="43.5465" lon="6.39396">
        <ele>339.1</ele>
        <time>2024-11-20T13:20:44.000Z</time>
      </trkpt>
      <trkpt lat="43.54651" lon="6.39395">
        <ele>339.1</ele>
        <time>2024-11-20T13:20:45.000Z</time>
      </trkpt>
      <trkpt lat="43.54664" lon="6.39385">
        <ele>339.2</ele>
        <time>2024-11-20T13:20:54.000Z</time>
      </trkpt>
      <trkpt lat="43.54673" lon="6.39385">
        <ele>339.4</ele>
        <time>2024-11-20T13:21:01.000Z</time>
      </trkpt>
      <trkpt lat="43.54681" lon="6.39385">
        <ele>339.8</ele>
        <time>2024-11-20T13:21:08.000Z</time>
      </trkpt>
      <trkpt lat="43.54689" lon="6.39384">
        <ele>340.3</ele>
        <time>2024-11-20T13:21:15.000Z</time>
      </trkpt>
      <trkpt lat="43.54697" lon="6.39383">
        <ele>341</ele>
        <time>2024-11-20T13:21:23.000Z</time>
      </trkpt>
      <trkpt lat="43.54705" lon="6.39382">
        <ele>341.4</ele>
        <time>2024-11-20T13:21:31.000Z</time>
      </trkpt>
      <trkpt lat="43.54713" lon="6.3938">
        <ele>341.7</ele>
        <time>2024-11-20T13:21:37.000Z</time>
      </trkpt>
      <trkpt lat="43.54722" lon="6.3938">
        <ele>342</ele>
        <time>2024-11-20T13:21:44.000Z</time>
      </trkpt>
      <trkpt lat="43.5473" lon="6.3938">
        <ele>341.4</ele>
        <time>2024-11-20T13:21:53.000Z</time>
      </trkpt>
      <trkpt lat="43.54732" lon="6.39379">
        <ele>341.4</ele>
        <time>2024-11-20T13:21:54.000Z</time>
      </trkpt>
      <trkpt lat="43.54745" lon="6.39373">
        <ele>340.7</ele>
        <time>2024-11-20T13:22:05.000Z</time>
      </trkpt>
      <trkpt lat="43.54753" lon="6.39368">
        <ele>340.1</ele>
        <time>2024-11-20T13:22:11.000Z</time>
      </trkpt>
      <trkpt lat="43.54761" lon="6.39365">
        <ele>339.6</ele>
        <time>2024-11-20T13:22:18.000Z</time>
      </trkpt>
      <trkpt lat="43.54769" lon="6.39362">
        <ele>339.5</ele>
        <time>2024-11-20T13:22:25.000Z</time>
      </trkpt>
      <trkpt lat="43.54777" lon="6.3936">
        <ele>338.5</ele>
        <time>2024-11-20T13:22:31.000Z</time>
      </trkpt>
      <trkpt lat="43.54785" lon="6.39357">
        <ele>337.3</ele>
        <time>2024-11-20T13:22:38.000Z</time>
      </trkpt>
      <trkpt lat="43.54793" lon="6.39355">
        <ele>336.4</ele>
        <time>2024-11-20T13:22:47.000Z</time>
      </trkpt>
      <trkpt lat="43.54801" lon="6.39351">
        <ele>335.9</ele>
        <time>2024-11-20T13:22:58.000Z</time>
      </trkpt>
      <trkpt lat="43.54802" lon="6.3935">
        <ele>335.8</ele>
        <time>2024-11-20T13:22:59.000Z</time>
      </trkpt>
      <trkpt lat="43.54814" lon="6.39338">
        <ele>333.7</ele>
        <time>2024-11-20T13:23:10.000Z</time>
      </trkpt>
      <trkpt lat="43.54821" lon="6.3933">
        <ele>332.2</ele>
        <time>2024-11-20T13:23:17.000Z</time>
      </trkpt>
      <trkpt lat="43.54828" lon="6.39324">
        <ele>331</ele>
        <time>2024-11-20T13:23:24.000Z</time>
      </trkpt>
      <trkpt lat="43.54836" lon="6.39319">
        <ele>329.5</ele>
        <time>2024-11-20T13:23:30.000Z</time>
      </trkpt>
      <trkpt lat="43.54843" lon="6.39315">
        <ele>328</ele>
        <time>2024-11-20T13:23:37.000Z</time>
      </trkpt>
      <trkpt lat="43.54852" lon="6.39313">
        <ele>326.5</ele>
        <time>2024-11-20T13:23:43.000Z</time>
      </trkpt>
      <trkpt lat="43.5486" lon="6.39311">
        <ele>325.1</ele>
        <time>2024-11-20T13:23:49.000Z</time>
      </trkpt>
      <trkpt lat="43.54868" lon="6.3931">
        <ele>324.4</ele>
        <time>2024-11-20T13:23:56.000Z</time>
      </trkpt>
      <trkpt lat="43.54876" lon="6.39312">
        <ele>322.6</ele>
        <time>2024-11-20T13:24:02.000Z</time>
      </trkpt>
      <trkpt lat="43.54877" lon="6.39313">
        <ele>322.3</ele>
        <time>2024-11-20T13:24:03.000Z</time>
      </trkpt>
      <trkpt lat="43.54893" lon="6.39317">
        <ele>318.6</ele>
        <time>2024-11-20T13:24:16.000Z</time>
      </trkpt>
      <trkpt lat="43.54901" lon="6.39318">
        <ele>317.3</ele>
        <time>2024-11-20T13:24:23.000Z</time>
      </trkpt>
      <trkpt lat="43.54909" lon="6.3932">
        <ele>316.9</ele>
        <time>2024-11-20T13:24:31.000Z</time>
      </trkpt>
      <trkpt lat="43.54917" lon="6.39323">
        <ele>316.7</ele>
        <time>2024-11-20T13:24:38.000Z</time>
      </trkpt>
      <trkpt lat="43.54925" lon="6.39328">
        <ele>316</ele>
        <time>2024-11-20T13:24:46.000Z</time>
      </trkpt>
      <trkpt lat="43.54932" lon="6.39335">
        <ele>315</ele>
        <time>2024-11-20T13:24:56.000Z</time>
      </trkpt>
      <trkpt lat="43.54939" lon="6.39341">
        <ele>314.6</ele>
        <time>2024-11-20T13:25:03.000Z</time>
      </trkpt>
      <trkpt lat="43.5494" lon="6.39342">
        <ele>314.6</ele>
        <time>2024-11-20T13:25:04.000Z</time>
      </trkpt>
      <trkpt lat="43.54953" lon="6.39354">
        <ele>314.7</ele>
        <time>2024-11-20T13:25:14.000Z</time>
      </trkpt>
      <trkpt lat="43.54959" lon="6.39361">
        <ele>314.6</ele>
        <time>2024-11-20T13:25:20.000Z</time>
      </trkpt>
      <trkpt lat="43.54966" lon="6.39369">
        <ele>315</ele>
        <time>2024-11-20T13:25:27.000Z</time>
      </trkpt>
      <trkpt lat="43.54973" lon="6.39376">
        <ele>315.2</ele>
        <time>2024-11-20T13:25:34.000Z</time>
      </trkpt>
      <trkpt lat="43.54979" lon="6.39382">
        <ele>315.8</ele>
        <time>2024-11-20T13:25:42.000Z</time>
      </trkpt>
      <trkpt lat="43.54986" lon="6.39388">
        <ele>316.2</ele>
        <time>2024-11-20T13:25:49.000Z</time>
      </trkpt>
      <trkpt lat="43.54994" lon="6.39394">
        <ele>316.4</ele>
        <time>2024-11-20T13:25:55.000Z</time>
      </trkpt>
      <trkpt lat="43.55001" lon="6.39399">
        <ele>316.5</ele>
        <time>2024-11-20T13:26:02.000Z</time>
      </trkpt>
      <trkpt lat="43.55009" lon="6.39406">
        <ele>316.6</ele>
        <time>2024-11-20T13:26:11.000Z</time>
      </trkpt>
      <trkpt lat="43.5501" lon="6.39406">
        <ele>316.7</ele>
        <time>2024-11-20T13:26:12.000Z</time>
      </trkpt>
      <trkpt lat="43.55023" lon="6.39418">
        <ele>316.9</ele>
        <time>2024-11-20T13:26:26.000Z</time>
      </trkpt>
      <trkpt lat="43.5503" lon="6.39423">
        <ele>316.5</ele>
        <time>2024-11-20T13:26:33.000Z</time>
      </trkpt>
      <trkpt lat="43.55039" lon="6.39423">
        <ele>316.1</ele>
        <time>2024-11-20T13:26:39.000Z</time>
      </trkpt>
      <trkpt lat="43.55047" lon="6.39422">
        <ele>316.4</ele>
        <time>2024-11-20T13:26:46.000Z</time>
      </trkpt>
      <trkpt lat="43.55055" lon="6.39421">
        <ele>316.2</ele>
        <time>2024-11-20T13:26:53.000Z</time>
      </trkpt>
      <trkpt lat="43.55064" lon="6.39421">
        <ele>315.8</ele>
        <time>2024-11-20T13:27:01.000Z</time>
      </trkpt>
      <trkpt lat="43.55072" lon="6.39419">
        <ele>315.6</ele>
        <time>2024-11-20T13:27:09.000Z</time>
      </trkpt>
      <trkpt lat="43.5508" lon="6.39418">
        <ele>315.5</ele>
        <time>2024-11-20T13:27:17.000Z</time>
      </trkpt>
      <trkpt lat="43.55081" lon="6.39418">
        <ele>315.5</ele>
        <time>2024-11-20T13:27:18.000Z</time>
      </trkpt>
      <trkpt lat="43.55094" lon="6.39409">
        <ele>315.6</ele>
        <time>2024-11-20T13:27:33.000Z</time>
      </trkpt>
      <trkpt lat="43.551" lon="6.39401">
        <ele>315.4</ele>
        <time>2024-11-20T13:27:39.000Z</time>
      </trkpt>
      <trkpt lat="43.55106" lon="6.39393">
        <ele>315.4</ele>
        <time>2024-11-20T13:27:46.000Z</time>
      </trkpt>
      <trkpt lat="43.55113" lon="6.39386">
        <ele>315.2</ele>
        <time>2024-11-20T13:27:53.000Z</time>
      </trkpt>
      <trkpt lat="43.55121" lon="6.39382">
        <ele>315.2</ele>
        <time>2024-11-20T13:28:00.000Z</time>
      </trkpt>
      <trkpt lat="43.55123" lon="6.39393">
        <ele>315.4</ele>
        <time>2024-11-20T13:28:25.000Z</time>
      </trkpt>
      <trkpt lat="43.55123" lon="6.39394">
        <ele>315.4</ele>
        <time>2024-11-20T13:28:26.000Z</time>
      </trkpt>
      <trkpt lat="43.55118" lon="6.39415">
        <ele>316</ele>
        <time>2024-11-20T13:28:41.000Z</time>
      </trkpt>
      <trkpt lat="43.55115" lon="6.39425">
        <ele>316.3</ele>
        <time>2024-11-20T13:28:47.000Z</time>
      </trkpt>
      <trkpt lat="43.55114" lon="6.39436">
        <ele>316.4</ele>
        <time>2024-11-20T13:28:54.000Z</time>
      </trkpt>
      <trkpt lat="43.55114" lon="6.39448">
        <ele>316.6</ele>
        <time>2024-11-20T13:29:01.000Z</time>
      </trkpt>
      <trkpt lat="43.55113" lon="6.39459">
        <ele>317.2</ele>
        <time>2024-11-20T13:29:08.000Z</time>
      </trkpt>
      <trkpt lat="43.55112" lon="6.3947">
        <ele>317.5</ele>
        <time>2024-11-20T13:29:14.000Z</time>
      </trkpt>
      <trkpt lat="43.55109" lon="6.39482">
        <ele>318</ele>
        <time>2024-11-20T13:29:23.000Z</time>
      </trkpt>
      <trkpt lat="43.55104" lon="6.39492">
        <ele>319.6</ele>
        <time>2024-11-20T13:30:28.000Z</time>
      </trkpt>
      <trkpt lat="43.55104" lon="6.39492">
        <ele>319.6</ele>
        <time>2024-11-20T13:30:29.000Z</time>
      </trkpt>
      <trkpt lat="43.55112" lon="6.39498">
        <ele>318.9</ele>
        <time>2024-11-20T13:32:34.000Z</time>
      </trkpt>
      <trkpt lat="43.55112" lon="6.39499">
        <ele>319</ele>
        <time>2024-11-20T13:32:35.000Z</time>
      </trkpt>
      <trkpt lat="43.55125" lon="6.39513">
        <ele>321.7</ele>
        <time>2024-11-20T13:33:02.000Z</time>
      </trkpt>
      <trkpt lat="43.55131" lon="6.3952">
        <ele>323.6</ele>
        <time>2024-11-20T13:33:19.000Z</time>
      </trkpt>
      <trkpt lat="43.5514" lon="6.39517">
        <ele>326</ele>
        <time>2024-11-20T13:33:40.000Z</time>
      </trkpt>
      <trkpt lat="43.55141" lon="6.39517">
        <ele>326.1</ele>
        <time>2024-11-20T13:33:41.000Z</time>
      </trkpt>
      <trkpt lat="43.55144" lon="6.39539">
        <ele>333.2</ele>
        <time>2024-11-20T13:34:20.000Z</time>
      </trkpt>
      <trkpt lat="43.55152" lon="6.39545">
        <ele>335.1</ele>
        <time>2024-11-20T13:34:36.000Z</time>
      </trkpt>
      <trkpt lat="43.5516" lon="6.39543">
        <ele>336.5</ele>
        <time>2024-11-20T13:34:47.000Z</time>
      </trkpt>
      <trkpt lat="43.5516" lon="6.39543">
        <ele>336.6</ele>
        <time>2024-11-20T13:34:48.000Z</time>
      </trkpt>
      <trkpt lat="43.5517" lon="6.39561">
        <ele>340.6</ele>
        <time>2024-11-20T13:35:21.000Z</time>
      </trkpt>
      <trkpt lat="43.55178" lon="6.39565">
        <ele>343.5</ele>
        <time>2024-11-20T13:36:33.000Z</time>
      </trkpt>
      <trkpt lat="43.55178" lon="6.39565">
        <ele>343.5</ele>
        <time>2024-11-20T13:36:34.000Z</time>
      </trkpt>
      <trkpt lat="43.55194" lon="6.39559">
        <ele>342.1</ele>
        <time>2024-11-20T13:36:53.000Z</time>
      </trkpt>
      <trkpt lat="43.55202" lon="6.39554">
        <ele>341.7</ele>
        <time>2024-11-20T13:37:01.000Z</time>
      </trkpt>
      <trkpt lat="43.5521" lon="6.3955">
        <ele>341.5</ele>
        <time>2024-11-20T13:37:09.000Z</time>
      </trkpt>
      <trkpt lat="43.55218" lon="6.39547">
        <ele>340.9</ele>
        <time>2024-11-20T13:37:17.000Z</time>
      </trkpt>
      <trkpt lat="43.55226" lon="6.39543">
        <ele>340.2</ele>
        <time>2024-11-20T13:37:25.000Z</time>
      </trkpt>
      <trkpt lat="43.55234" lon="6.39538">
        <ele>339.6</ele>
        <time>2024-11-20T13:37:34.000Z</time>
      </trkpt>
      <trkpt lat="43.55235" lon="6.39537">
        <ele>339.6</ele>
        <time>2024-11-20T13:37:35.000Z</time>
      </trkpt>
      <trkpt lat="43.5525" lon="6.39529">
        <ele>338.9</ele>
        <time>2024-11-20T13:37:52.000Z</time>
      </trkpt>
      <trkpt lat="43.55257" lon="6.39526">
        <ele>338.5</ele>
        <time>2024-11-20T13:38:00.000Z</time>
      </trkpt>
      <trkpt lat="43.55266" lon="6.39524">
        <ele>338.1</ele>
        <time>2024-11-20T13:38:10.000Z</time>
      </trkpt>
      <trkpt lat="43.55274" lon="6.39522">
        <ele>337.6</ele>
        <time>2024-11-20T13:38:19.000Z</time>
      </trkpt>
      <trkpt lat="43.55281" lon="6.39517">
        <ele>337.5</ele>
        <time>2024-11-20T13:38:27.000Z</time>
      </trkpt>
      <trkpt lat="43.55288" lon="6.3951">
        <ele>337.8</ele>
        <time>2024-11-20T13:38:35.000Z</time>
      </trkpt>
      <trkpt lat="43.55288" lon="6.39509">
        <ele>337.8</ele>
        <time>2024-11-20T13:38:36.000Z</time>
      </trkpt>
      <trkpt lat="43.55303" lon="6.39499">
        <ele>337.1</ele>
        <time>2024-11-20T13:38:50.000Z</time>
      </trkpt>
      <trkpt lat="43.55311" lon="6.39495">
        <ele>336.6</ele>
        <time>2024-11-20T13:38:57.000Z</time>
      </trkpt>
      <trkpt lat="43.5532" lon="6.39491">
        <ele>336.5</ele>
        <time>2024-11-20T13:39:03.000Z</time>
      </trkpt>
      <trkpt lat="43.55327" lon="6.39488">
        <ele>336.7</ele>
        <time>2024-11-20T13:39:09.000Z</time>
      </trkpt>
      <trkpt lat="43.55335" lon="6.39485">
        <ele>336.8</ele>
        <time>2024-11-20T13:39:16.000Z</time>
      </trkpt>
      <trkpt lat="43.55343" lon="6.39481">
        <ele>336.9</ele>
        <time>2024-11-20T13:39:23.000Z</time>
      </trkpt>
      <trkpt lat="43.55351" lon="6.39477">
        <ele>337.6</ele>
        <time>2024-11-20T13:39:30.000Z</time>
      </trkpt>
      <trkpt lat="43.55359" lon="6.39473">
        <ele>338.6</ele>
        <time>2024-11-20T13:39:38.000Z</time>
      </trkpt>
      <trkpt lat="43.5536" lon="6.39472">
        <ele>338.7</ele>
        <time>2024-11-20T13:39:39.000Z</time>
      </trkpt>
      <trkpt lat="43.55372" lon="6.39461">
        <ele>340.9</ele>
        <time>2024-11-20T13:39:54.000Z</time>
      </trkpt>
      <trkpt lat="43.5538" lon="6.39458">
        <ele>343.1</ele>
        <time>2024-11-20T13:40:06.000Z</time>
      </trkpt>
      <trkpt lat="43.55381" lon="6.3947">
        <ele>347.9</ele>
        <time>2024-11-20T13:40:27.000Z</time>
      </trkpt>
      <trkpt lat="43.55386" lon="6.3948">
        <ele>349.7</ele>
        <time>2024-11-20T13:40:38.000Z</time>
      </trkpt>
      <trkpt lat="43.55388" lon="6.39491">
        <ele>351.6</ele>
        <time>2024-11-20T13:40:49.000Z</time>
      </trkpt>
      <trkpt lat="43.55389" lon="6.39492">
        <ele>351.8</ele>
        <time>2024-11-20T13:40:50.000Z</time>
      </trkpt>
      <trkpt lat="43.55402" lon="6.39506">
        <ele>354.9</ele>
        <time>2024-11-20T13:41:08.000Z</time>
      </trkpt>
      <trkpt lat="43.55409" lon="6.39512">
        <ele>356.3</ele>
        <time>2024-11-20T13:41:19.000Z</time>
      </trkpt>
      <trkpt lat="43.55416" lon="6.39519">
        <ele>358</ele>
        <time>2024-11-20T13:41:32.000Z</time>
      </trkpt>
      <trkpt lat="43.55423" lon="6.39525">
        <ele>359.4</ele>
        <time>2024-11-20T13:41:46.000Z</time>
      </trkpt>
      <trkpt lat="43.55432" lon="6.39528">
        <ele>360.3</ele>
        <time>2024-11-20T13:44:55.000Z</time>
      </trkpt>
      <trkpt lat="43.55433" lon="6.39527">
        <ele>360.4</ele>
        <time>2024-11-20T13:44:56.000Z</time>
      </trkpt>
      <trkpt lat="43.55445" lon="6.39514">
        <ele>361.7</ele>
        <time>2024-11-20T13:45:11.000Z</time>
      </trkpt>
      <trkpt lat="43.5545" lon="6.39504">
        <ele>362.8</ele>
        <time>2024-11-20T13:45:27.000Z</time>
      </trkpt>
      <trkpt lat="43.55447" lon="6.39493">
        <ele>362.5</ele>
        <time>2024-11-20T13:45:41.000Z</time>
      </trkpt>
      <trkpt lat="43.55449" lon="6.39481">
        <ele>362.6</ele>
        <time>2024-11-20T13:45:50.000Z</time>
      </trkpt>
      <trkpt lat="43.55451" lon="6.3947">
        <ele>362.6</ele>
        <time>2024-11-20T13:45:58.000Z</time>
      </trkpt>
      <trkpt lat="43.55452" lon="6.39469">
        <ele>362.6</ele>
        <time>2024-11-20T13:45:59.000Z</time>
      </trkpt>
      <trkpt lat="43.55465" lon="6.39456">
        <ele>361.8</ele>
        <time>2024-11-20T13:46:15.000Z</time>
      </trkpt>
      <trkpt lat="43.55471" lon="6.39448">
        <ele>362</ele>
        <time>2024-11-20T13:46:24.000Z</time>
      </trkpt>
      <trkpt lat="43.55473" lon="6.39437">
        <ele>362.4</ele>
        <time>2024-11-20T13:46:41.000Z</time>
      </trkpt>
      <trkpt lat="43.55473" lon="6.39425">
        <ele>361.8</ele>
        <time>2024-11-20T13:47:05.000Z</time>
      </trkpt>
      <trkpt lat="43.55473" lon="6.39424">
        <ele>361.7</ele>
        <time>2024-11-20T13:47:06.000Z</time>
      </trkpt>
      <trkpt lat="43.5547" lon="6.39401">
        <ele>359.8</ele>
        <time>2024-11-20T13:47:29.000Z</time>
      </trkpt>
      <trkpt lat="43.55471" lon="6.3939">
        <ele>358.3</ele>
        <time>2024-11-20T13:47:41.000Z</time>
      </trkpt>
      <trkpt lat="43.55475" lon="6.39379">
        <ele>356.2</ele>
        <time>2024-11-20T13:48:05.000Z</time>
      </trkpt>
      <trkpt lat="43.55477" lon="6.39367">
        <ele>355.5</ele>
        <time>2024-11-20T13:48:33.000Z</time>
      </trkpt>
      <trkpt lat="43.55478" lon="6.39367">
        <ele>355.5</ele>
        <time>2024-11-20T13:48:34.000Z</time>
      </trkpt>
      <trkpt lat="43.55461" lon="6.39359">
        <ele>350.4</ele>
        <time>2024-11-20T13:49:45.000Z</time>
      </trkpt>
      <trkpt lat="43.5546" lon="6.39359">
        <ele>350.3</ele>
        <time>2024-11-20T13:49:46.000Z</time>
      </trkpt>
      <trkpt lat="43.55446" lon="6.39365">
        <ele>347.5</ele>
        <time>2024-11-20T13:50:07.000Z</time>
      </trkpt>
      <trkpt lat="43.55438" lon="6.3937">
        <ele>346.6</ele>
        <time>2024-11-20T13:50:18.000Z</time>
      </trkpt>
      <trkpt lat="43.5543" lon="6.39375">
        <ele>344.3</ele>
        <time>2024-11-20T13:55:34.000Z</time>
      </trkpt>
      <trkpt lat="43.5543" lon="6.39376">
        <ele>344.1</ele>
        <time>2024-11-20T13:55:35.000Z</time>
      </trkpt>
      <trkpt lat="43.55438" lon="6.39369">
        <ele>345.1</ele>
        <time>2024-11-20T13:56:44.000Z</time>
      </trkpt>
      <trkpt lat="43.55454" lon="6.39363">
        <ele>345.8</ele>
        <time>2024-11-20T13:57:06.000Z</time>
      </trkpt>
      <trkpt lat="43.55463" lon="6.39361">
        <ele>347.3</ele>
        <time>2024-11-20T13:57:26.000Z</time>
      </trkpt>
      <trkpt lat="43.55471" lon="6.39361">
        <ele>349.6</ele>
        <time>2024-11-20T13:57:59.000Z</time>
      </trkpt>
      <trkpt lat="43.55472" lon="6.39361">
        <ele>349.7</ele>
        <time>2024-11-20T13:58:00.000Z</time>
      </trkpt>
      <trkpt lat="43.55474" lon="6.39374">
        <ele>354.4</ele>
        <time>2024-11-20T13:59:01.000Z</time>
      </trkpt>
      <trkpt lat="43.55474" lon="6.39374">
        <ele>354.4</ele>
        <time>2024-11-20T13:59:02.000Z</time>
      </trkpt>
      <trkpt lat="43.55471" lon="6.39398">
        <ele>357.1</ele>
        <time>2024-11-20T13:59:32.000Z</time>
      </trkpt>
      <trkpt lat="43.55472" lon="6.39409">
        <ele>358</ele>
        <time>2024-11-20T13:59:41.000Z</time>
      </trkpt>
      <trkpt lat="43.55474" lon="6.3942">
        <ele>358.6</ele>
        <time>2024-11-20T13:59:51.000Z</time>
      </trkpt>
      <trkpt lat="43.55474" lon="6.39432">
        <ele>359.4</ele>
        <time>2024-11-20T14:00:01.000Z</time>
      </trkpt>
      <trkpt lat="43.55479" lon="6.39422">
        <ele>361.3</ele>
        <time>2024-11-20T14:00:46.000Z</time>
      </trkpt>
      <trkpt lat="43.5548" lon="6.39422">
        <ele>361.2</ele>
        <time>2024-11-20T14:00:47.000Z</time>
      </trkpt>
      <trkpt lat="43.55488" lon="6.39439">
        <ele>362.2</ele>
        <time>2024-11-20T14:01:13.000Z</time>
      </trkpt>
      <trkpt lat="43.5549" lon="6.3945">
        <ele>362.4</ele>
        <time>2024-11-20T14:01:22.000Z</time>
      </trkpt>
      <trkpt lat="43.55495" lon="6.3946">
        <ele>362.4</ele>
        <time>2024-11-20T14:01:30.000Z</time>
      </trkpt>
      <trkpt lat="43.55502" lon="6.39466">
        <ele>362.3</ele>
        <time>2024-11-20T14:01:37.000Z</time>
      </trkpt>
      <trkpt lat="43.55508" lon="6.39475">
        <ele>362.3</ele>
        <time>2024-11-20T14:01:45.000Z</time>
      </trkpt>
      <trkpt lat="43.5551" lon="6.39486">
        <ele>362.2</ele>
        <time>2024-11-20T14:01:53.000Z</time>
      </trkpt>
      <trkpt lat="43.5551" lon="6.39487">
        <ele>362.1</ele>
        <time>2024-11-20T14:01:54.000Z</time>
      </trkpt>
      <trkpt lat="43.5552" lon="6.39505">
        <ele>363.1</ele>
        <time>2024-11-20T14:02:10.000Z</time>
      </trkpt>
      <trkpt lat="43.55525" lon="6.39515">
        <ele>364</ele>
        <time>2024-11-20T14:02:19.000Z</time>
      </trkpt>
      <trkpt lat="43.55532" lon="6.39522">
        <ele>364.5</ele>
        <time>2024-11-20T14:02:28.000Z</time>
      </trkpt>
      <trkpt lat="43.55539" lon="6.39527">
        <ele>364.9</ele>
        <time>2024-11-20T14:02:35.000Z</time>
      </trkpt>
      <trkpt lat="43.55547" lon="6.39532">
        <ele>365.4</ele>
        <time>2024-11-20T14:02:44.000Z</time>
      </trkpt>
      <trkpt lat="43.55554" lon="6.39538">
        <ele>366.4</ele>
        <time>2024-11-20T14:02:54.000Z</time>
      </trkpt>
      <trkpt lat="43.55555" lon="6.39538">
        <ele>366.5</ele>
        <time>2024-11-20T14:02:55.000Z</time>
      </trkpt>
      <trkpt lat="43.55563" lon="6.39557">
        <ele>368.6</ele>
        <time>2024-11-20T14:03:16.000Z</time>
      </trkpt>
      <trkpt lat="43.55569" lon="6.39564">
        <ele>369.3</ele>
        <time>2024-11-20T14:03:24.000Z</time>
      </trkpt>
      <trkpt lat="43.55576" lon="6.3957">
        <ele>370.8</ele>
        <time>2024-11-20T14:03:33.000Z</time>
      </trkpt>
      <trkpt lat="43.55583" lon="6.39576">
        <ele>371.4</ele>
        <time>2024-11-20T14:03:42.000Z</time>
      </trkpt>
      <trkpt lat="43.55591" lon="6.39577">
        <ele>371.8</ele>
        <time>2024-11-20T14:03:50.000Z</time>
      </trkpt>
      <trkpt lat="43.55599" lon="6.39572">
        <ele>372</ele>
        <time>2024-11-20T14:03:59.000Z</time>
      </trkpt>
      <trkpt lat="43.556" lon="6.39571">
        <ele>372</ele>
        <time>2024-11-20T14:04:00.000Z</time>
      </trkpt>
      <trkpt lat="43.5561" lon="6.39556">
        <ele>371.8</ele>
        <time>2024-11-20T14:04:15.000Z</time>
      </trkpt>
      <trkpt lat="43.55617" lon="6.39549">
        <ele>371.3</ele>
        <time>2024-11-20T14:04:25.000Z</time>
      </trkpt>
      <trkpt lat="43.55623" lon="6.39541">
        <ele>371.3</ele>
        <time>2024-11-20T14:04:34.000Z</time>
      </trkpt>
      <trkpt lat="43.55629" lon="6.39532">
        <ele>371.3</ele>
        <time>2024-11-20T14:04:43.000Z</time>
      </trkpt>
      <trkpt lat="43.5563" lon="6.39519">
        <ele>371.8</ele>
        <time>2024-11-20T14:04:51.000Z</time>
      </trkpt>
      <trkpt lat="43.5563" lon="6.39507">
        <ele>372.3</ele>
        <time>2024-11-20T14:04:59.000Z</time>
      </trkpt>
      <trkpt lat="43.55629" lon="6.39496">
        <ele>372.7</ele>
        <time>2024-11-20T14:05:07.000Z</time>
      </trkpt>
      <trkpt lat="43.55628" lon="6.39495">
        <ele>372.8</ele>
        <time>2024-11-20T14:05:08.000Z</time>
      </trkpt>
      <trkpt lat="43.55629" lon="6.39473">
        <ele>373.4</ele>
        <time>2024-11-20T14:05:22.000Z</time>
      </trkpt>
      <trkpt lat="43.5563" lon="6.39462">
        <ele>373.6</ele>
        <time>2024-11-20T14:05:29.000Z</time>
      </trkpt>
      <trkpt lat="43.55631" lon="6.39451">
        <ele>373.7</ele>
        <time>2024-11-20T14:05:36.000Z</time>
      </trkpt>
      <trkpt lat="43.55633" lon="6.3944">
        <ele>373.4</ele>
        <time>2024-11-20T14:05:42.000Z</time>
      </trkpt>
      <trkpt lat="43.55635" lon="6.39429">
        <ele>373</ele>
        <time>2024-11-20T14:05:49.000Z</time>
      </trkpt>
      <trkpt lat="43.55638" lon="6.39417">
        <ele>373.5</ele>
        <time>2024-11-20T14:05:56.000Z</time>
      </trkpt>
      <trkpt lat="43.55642" lon="6.39406">
        <ele>374.5</ele>
        <time>2024-11-20T14:06:04.000Z</time>
      </trkpt>
      <trkpt lat="43.55644" lon="6.39395">
        <ele>374.8</ele>
        <time>2024-11-20T14:06:11.000Z</time>
      </trkpt>
      <trkpt lat="43.55644" lon="6.39393">
        <ele>374.8</ele>
        <time>2024-11-20T14:06:12.000Z</time>
      </trkpt>
      <trkpt lat="43.55645" lon="6.39371">
        <ele>374.7</ele>
        <time>2024-11-20T14:06:25.000Z</time>
      </trkpt>
      <trkpt lat="43.55646" lon="6.3936">
        <ele>374.3</ele>
        <time>2024-11-20T14:06:32.000Z</time>
      </trkpt>
      <trkpt lat="43.55648" lon="6.39349">
        <ele>373.9</ele>
        <time>2024-11-20T14:06:38.000Z</time>
      </trkpt>
      <trkpt lat="43.5565" lon="6.39337">
        <ele>373.8</ele>
        <time>2024-11-20T14:06:45.000Z</time>
      </trkpt>
      <trkpt lat="43.5565" lon="6.39327">
        <ele>374.1</ele>
        <time>2024-11-20T14:06:51.000Z</time>
      </trkpt>
      <trkpt lat="43.55651" lon="6.39315">
        <ele>374</ele>
        <time>2024-11-20T14:06:58.000Z</time>
      </trkpt>
      <trkpt lat="43.5565" lon="6.39302">
        <ele>373.7</ele>
        <time>2024-11-20T14:07:06.000Z</time>
      </trkpt>
      <trkpt lat="43.55649" lon="6.39291">
        <ele>373.6</ele>
        <time>2024-11-20T14:07:13.000Z</time>
      </trkpt>
      <trkpt lat="43.55648" lon="6.39289">
        <ele>373.5</ele>
        <time>2024-11-20T14:07:14.000Z</time>
      </trkpt>
      <trkpt lat="43.55642" lon="6.39269">
        <ele>373.5</ele>
        <time>2024-11-20T14:07:28.000Z</time>
      </trkpt>
      <trkpt lat="43.55639" lon="6.39259">
        <ele>373.5</ele>
        <time>2024-11-20T14:07:35.000Z</time>
      </trkpt>
      <trkpt lat="43.55633" lon="6.39251">
        <ele>373.7</ele>
        <time>2024-11-20T14:07:42.000Z</time>
      </trkpt>
      <trkpt lat="43.55627" lon="6.39243">
        <ele>373.9</ele>
        <time>2024-11-20T14:07:49.000Z</time>
      </trkpt>
      <trkpt lat="43.5562" lon="6.39237">
        <ele>374.1</ele>
        <time>2024-11-20T14:07:56.000Z</time>
      </trkpt>
      <trkpt lat="43.55613" lon="6.3923">
        <ele>374.7</ele>
        <time>2024-11-20T14:08:03.000Z</time>
      </trkpt>
      <trkpt lat="43.55606" lon="6.39223">
        <ele>375.6</ele>
        <time>2024-11-20T14:08:11.000Z</time>
      </trkpt>
      <trkpt lat="43.55599" lon="6.39218">
        <ele>376.2</ele>
        <time>2024-11-20T14:08:18.000Z</time>
      </trkpt>
      <trkpt lat="43.55598" lon="6.39217">
        <ele>376.2</ele>
        <time>2024-11-20T14:08:19.000Z</time>
      </trkpt>
      <trkpt lat="43.55584" lon="6.39206">
        <ele>376.7</ele>
        <time>2024-11-20T14:08:32.000Z</time>
      </trkpt>
      <trkpt lat="43.55578" lon="6.392">
        <ele>377.5</ele>
        <time>2024-11-20T14:08:39.000Z</time>
      </trkpt>
      <trkpt lat="43.55571" lon="6.39192">
        <ele>378.4</ele>
        <time>2024-11-20T14:08:47.000Z</time>
      </trkpt>
      <trkpt lat="43.55564" lon="6.39185">
        <ele>379.2</ele>
        <time>2024-11-20T14:08:54.000Z</time>
      </trkpt>
      <trkpt lat="43.55558" lon="6.39178">
        <ele>379.9</ele>
        <time>2024-11-20T14:09:02.000Z</time>
      </trkpt>
      <trkpt lat="43.55552" lon="6.39168">
        <ele>380.8</ele>
        <time>2024-11-20T14:09:09.000Z</time>
      </trkpt>
      <trkpt lat="43.55547" lon="6.39158">
        <ele>382</ele>
        <time>2024-11-20T14:09:17.000Z</time>
      </trkpt>
      <trkpt lat="43.55544" lon="6.39147">
        <ele>383.1</ele>
        <time>2024-11-20T14:09:25.000Z</time>
      </trkpt>
      <trkpt lat="43.55544" lon="6.39145">
        <ele>383.3</ele>
        <time>2024-11-20T14:09:26.000Z</time>
      </trkpt>
      <trkpt lat="43.55544" lon="6.39123">
        <ele>385.1</ele>
        <time>2024-11-20T14:09:44.000Z</time>
      </trkpt>
      <trkpt lat="43.55546" lon="6.39112">
        <ele>386.1</ele>
        <time>2024-11-20T14:09:54.000Z</time>
      </trkpt>
      <trkpt lat="43.55551" lon="6.39102">
        <ele>387.6</ele>
        <time>2024-11-20T14:10:02.000Z</time>
      </trkpt>
      <trkpt lat="43.55556" lon="6.39092">
        <ele>388.7</ele>
        <time>2024-11-20T14:10:10.000Z</time>
      </trkpt>
      <trkpt lat="43.55561" lon="6.39083">
        <ele>389.1</ele>
        <time>2024-11-20T14:10:18.000Z</time>
      </trkpt>
      <trkpt lat="43.55567" lon="6.39075">
        <ele>389.4</ele>
        <time>2024-11-20T14:10:25.000Z</time>
      </trkpt>
      <trkpt lat="43.55573" lon="6.39067">
        <ele>390.5</ele>
        <time>2024-11-20T14:10:33.000Z</time>
      </trkpt>
      <trkpt lat="43.55574" lon="6.39066">
        <ele>390.6</ele>
        <time>2024-11-20T14:10:34.000Z</time>
      </trkpt>
      <trkpt lat="43.55585" lon="6.39052">
        <ele>392.1</ele>
        <time>2024-11-20T14:10:50.000Z</time>
      </trkpt>
      <trkpt lat="43.55592" lon="6.39045">
        <ele>392.4</ele>
        <time>2024-11-20T14:10:58.000Z</time>
      </trkpt>
      <trkpt lat="43.55599" lon="6.39037">
        <ele>392.9</ele>
        <time>2024-11-20T14:11:06.000Z</time>
      </trkpt>
      <trkpt lat="43.55606" lon="6.39032">
        <ele>394</ele>
        <time>2024-11-20T14:11:15.000Z</time>
      </trkpt>
      <trkpt lat="43.55613" lon="6.39026">
        <ele>394.6</ele>
        <time>2024-11-20T14:11:23.000Z</time>
      </trkpt>
      <trkpt lat="43.55621" lon="6.3902">
        <ele>395.5</ele>
        <time>2024-11-20T14:11:30.000Z</time>
      </trkpt>
      <trkpt lat="43.55628" lon="6.39015">
        <ele>397.2</ele>
        <time>2024-11-20T14:11:38.000Z</time>
      </trkpt>
      <trkpt lat="43.55629" lon="6.39014">
        <ele>397.4</ele>
        <time>2024-11-20T14:11:39.000Z</time>
      </trkpt>
      <trkpt lat="43.55644" lon="6.39008">
        <ele>398.1</ele>
        <time>2024-11-20T14:11:52.000Z</time>
      </trkpt>
      <trkpt lat="43.55651" lon="6.39004">
        <ele>398.1</ele>
        <time>2024-11-20T14:11:59.000Z</time>
      </trkpt>
      <trkpt lat="43.55658" lon="6.38997">
        <ele>398.1</ele>
        <time>2024-11-20T14:12:06.000Z</time>
      </trkpt>
      <trkpt lat="43.55664" lon="6.3899">
        <ele>398.4</ele>
        <time>2024-11-20T14:12:13.000Z</time>
      </trkpt>
      <trkpt lat="43.55671" lon="6.38982">
        <ele>399</ele>
        <time>2024-11-20T14:12:21.000Z</time>
      </trkpt>
      <trkpt lat="43.55677" lon="6.38975">
        <ele>400.1</ele>
        <time>2024-11-20T14:12:28.000Z</time>
      </trkpt>
      <trkpt lat="43.55684" lon="6.38968">
        <ele>400.8</ele>
        <time>2024-11-20T14:12:35.000Z</time>
      </trkpt>
      <trkpt lat="43.5569" lon="6.38961">
        <ele>401.4</ele>
        <time>2024-11-20T14:12:43.000Z</time>
      </trkpt>
      <trkpt lat="43.55691" lon="6.3896">
        <ele>401.4</ele>
        <time>2024-11-20T14:12:44.000Z</time>
      </trkpt>
      <trkpt lat="43.55703" lon="6.38946">
        <ele>402.1</ele>
        <time>2024-11-20T14:12:58.000Z</time>
      </trkpt>
      <trkpt lat="43.55709" lon="6.38938">
        <ele>402.7</ele>
        <time>2024-11-20T14:13:06.000Z</time>
      </trkpt>
      <trkpt lat="43.55716" lon="6.3893">
        <ele>402.7</ele>
        <time>2024-11-20T14:13:13.000Z</time>
      </trkpt>
      <trkpt lat="43.55723" lon="6.38924">
        <ele>402.8</ele>
        <time>2024-11-20T14:13:20.000Z</time>
      </trkpt>
      <trkpt lat="43.5573" lon="6.38916">
        <ele>403.6</ele>
        <time>2024-11-20T14:13:27.000Z</time>
      </trkpt>
      <trkpt lat="43.55735" lon="6.38909">
        <ele>404.4</ele>
        <time>2024-11-20T14:13:34.000Z</time>
      </trkpt>
      <trkpt lat="43.55738" lon="6.38897">
        <ele>404.5</ele>
        <time>2024-11-20T14:13:43.000Z</time>
      </trkpt>
      <trkpt lat="43.55738" lon="6.38886">
        <ele>404.7</ele>
        <time>2024-11-20T14:13:50.000Z</time>
      </trkpt>
      <trkpt lat="43.55738" lon="6.38884">
        <ele>404.7</ele>
        <time>2024-11-20T14:13:51.000Z</time>
      </trkpt>
      <trkpt lat="43.55738" lon="6.38864">
        <ele>404.8</ele>
        <time>2024-11-20T14:14:03.000Z</time>
      </trkpt>
      <trkpt lat="43.55738" lon="6.38852">
        <ele>404.4</ele>
        <time>2024-11-20T14:14:10.000Z</time>
      </trkpt>
      <trkpt lat="43.55738" lon="6.3884">
        <ele>404.2</ele>
        <time>2024-11-20T14:14:17.000Z</time>
      </trkpt>
      <trkpt lat="43.55738" lon="6.38828">
        <ele>404.2</ele>
        <time>2024-11-20T14:14:24.000Z</time>
      </trkpt>
      <trkpt lat="43.55739" lon="6.38818">
        <ele>404.1</ele>
        <time>2024-11-20T14:14:30.000Z</time>
      </trkpt>
      <trkpt lat="43.5574" lon="6.38805">
        <ele>404</ele>
        <time>2024-11-20T14:14:37.000Z</time>
      </trkpt>
      <trkpt lat="43.55739" lon="6.38793">
        <ele>403.9</ele>
        <time>2024-11-20T14:14:45.000Z</time>
      </trkpt>
      <trkpt lat="43.55739" lon="6.38781">
        <ele>403.4</ele>
        <time>2024-11-20T14:14:52.000Z</time>
      </trkpt>
      <trkpt lat="43.55739" lon="6.38779">
        <ele>403.3</ele>
        <time>2024-11-20T14:14:53.000Z</time>
      </trkpt>
      <trkpt lat="43.55742" lon="6.38758">
        <ele>402.9</ele>
        <time>2024-11-20T14:15:07.000Z</time>
      </trkpt>
      <trkpt lat="43.55745" lon="6.38747">
        <ele>402.7</ele>
        <time>2024-11-20T14:15:15.000Z</time>
      </trkpt>
      <trkpt lat="43.55747" lon="6.38735">
        <ele>402.2</ele>
        <time>2024-11-20T14:15:22.000Z</time>
      </trkpt>
      <trkpt lat="43.55745" lon="6.38724">
        <ele>402.5</ele>
        <time>2024-11-20T14:15:30.000Z</time>
      </trkpt>
      <trkpt lat="43.55743" lon="6.38714">
        <ele>402.5</ele>
        <time>2024-11-20T14:15:36.000Z</time>
      </trkpt>
      <trkpt lat="43.55741" lon="6.38703">
        <ele>402.5</ele>
        <time>2024-11-20T14:15:42.000Z</time>
      </trkpt>
      <trkpt lat="43.55741" lon="6.38692">
        <ele>402.5</ele>
        <time>2024-11-20T14:15:48.000Z</time>
      </trkpt>
      <trkpt lat="43.55742" lon="6.38681">
        <ele>402.5</ele>
        <time>2024-11-20T14:15:55.000Z</time>
      </trkpt>
      <trkpt lat="43.55742" lon="6.38679">
        <ele>402.4</ele>
        <time>2024-11-20T14:15:56.000Z</time>
      </trkpt>
      <trkpt lat="43.55745" lon="6.3866">
        <ele>402.5</ele>
        <time>2024-11-20T14:16:05.000Z</time>
      </trkpt>
      <trkpt lat="43.55746" lon="6.38649">
        <ele>402.6</ele>
        <time>2024-11-20T14:16:10.000Z</time>
      </trkpt>
      <trkpt lat="43.55747" lon="6.38637">
        <ele>403.1</ele>
        <time>2024-11-20T14:16:16.000Z</time>
      </trkpt>
      <trkpt lat="43.55746" lon="6.38626">
        <ele>403.4</ele>
        <time>2024-11-20T14:16:23.000Z</time>
      </trkpt>
      <trkpt lat="43.55743" lon="6.38614">
        <ele>403.9</ele>
        <time>2024-11-20T14:16:31.000Z</time>
      </trkpt>
      <trkpt lat="43.55741" lon="6.38602">
        <ele>404.5</ele>
        <time>2024-11-20T14:16:40.000Z</time>
      </trkpt>
      <trkpt lat="43.5574" lon="6.3859">
        <ele>404.8</ele>
        <time>2024-11-20T14:16:48.000Z</time>
      </trkpt>
      <trkpt lat="43.55737" lon="6.3858">
        <ele>405.1</ele>
        <time>2024-11-20T14:16:55.000Z</time>
      </trkpt>
      <trkpt lat="43.55732" lon="6.3857">
        <ele>406.4</ele>
        <time>2024-11-20T14:17:09.000Z</time>
      </trkpt>
      <trkpt lat="43.55732" lon="6.3857">
        <ele>406.5</ele>
        <time>2024-11-20T14:17:10.000Z</time>
      </trkpt>
      <trkpt lat="43.55737" lon="6.38547">
        <ele>407.9</ele>
        <time>2024-11-20T14:18:13.000Z</time>
      </trkpt>
      <trkpt lat="43.55736" lon="6.38546">
        <ele>408</ele>
        <time>2024-11-20T14:18:14.000Z</time>
      </trkpt>
      <trkpt lat="43.55739" lon="6.38523">
        <ele>410.2</ele>
        <time>2024-11-20T14:18:35.000Z</time>
      </trkpt>
      <trkpt lat="43.55741" lon="6.38512">
        <ele>411.5</ele>
        <time>2024-11-20T14:18:42.000Z</time>
      </trkpt>
      <trkpt lat="43.55743" lon="6.38502">
        <ele>412.4</ele>
        <time>2024-11-20T14:18:49.000Z</time>
      </trkpt>
      <trkpt lat="43.55746" lon="6.38491">
        <ele>413.2</ele>
        <time>2024-11-20T14:18:57.000Z</time>
      </trkpt>
      <trkpt lat="43.55749" lon="6.38481">
        <ele>413.6</ele>
        <time>2024-11-20T14:19:03.000Z</time>
      </trkpt>
      <trkpt lat="43.55752" lon="6.38471">
        <ele>413.8</ele>
        <time>2024-11-20T14:19:09.000Z</time>
      </trkpt>
      <trkpt lat="43.55756" lon="6.3846">
        <ele>414</ele>
        <time>2024-11-20T14:19:16.000Z</time>
      </trkpt>
      <trkpt lat="43.55756" lon="6.38458">
        <ele>414</ele>
        <time>2024-11-20T14:19:17.000Z</time>
      </trkpt>
      <trkpt lat="43.55762" lon="6.38438">
        <ele>414.1</ele>
        <time>2024-11-20T14:19:32.000Z</time>
      </trkpt>
      <trkpt lat="43.55766" lon="6.38427">
        <ele>415</ele>
        <time>2024-11-20T14:19:40.000Z</time>
      </trkpt>
      <trkpt lat="43.55769" lon="6.38417">
        <ele>415.6</ele>
        <time>2024-11-20T14:19:48.000Z</time>
      </trkpt>
      <trkpt lat="43.55772" lon="6.38406">
        <ele>416.1</ele>
        <time>2024-11-20T14:19:54.000Z</time>
      </trkpt>
      <trkpt lat="43.55775" lon="6.38396">
        <ele>416.7</ele>
        <time>2024-11-20T14:20:01.000Z</time>
      </trkpt>
      <trkpt lat="43.55778" lon="6.38384">
        <ele>417.2</ele>
        <time>2024-11-20T14:20:08.000Z</time>
      </trkpt>
      <trkpt lat="43.55782" lon="6.38373">
        <ele>417.8</ele>
        <time>2024-11-20T14:20:16.000Z</time>
      </trkpt>
      <trkpt lat="43.55786" lon="6.38362">
        <ele>418.1</ele>
        <time>2024-11-20T14:20:24.000Z</time>
      </trkpt>
      <trkpt lat="43.55786" lon="6.38361">
        <ele>418.1</ele>
        <time>2024-11-20T14:20:25.000Z</time>
      </trkpt>
      <trkpt lat="43.55791" lon="6.38341">
        <ele>418.1</ele>
        <time>2024-11-20T14:20:41.000Z</time>
      </trkpt>
      <trkpt lat="43.55793" lon="6.3833">
        <ele>418</ele>
        <time>2024-11-20T14:20:47.000Z</time>
      </trkpt>
      <trkpt lat="43.55795" lon="6.38318">
        <ele>418</ele>
        <time>2024-11-20T14:20:53.000Z</time>
      </trkpt>
      <trkpt lat="43.55797" lon="6.38308">
        <ele>418</ele>
        <time>2024-11-20T14:20:59.000Z</time>
      </trkpt>
      <trkpt lat="43.55798" lon="6.38296">
        <ele>417.9</ele>
        <time>2024-11-20T14:21:05.000Z</time>
      </trkpt>
      <trkpt lat="43.55799" lon="6.38285">
        <ele>417.9</ele>
        <time>2024-11-20T14:21:11.000Z</time>
      </trkpt>
      <trkpt lat="43.55793" lon="6.38276">
        <ele>416</ele>
        <time>2024-11-20T14:21:21.000Z</time>
      </trkpt>
      <trkpt lat="43.55785" lon="6.38275">
        <ele>415</ele>
        <time>2024-11-20T14:21:33.000Z</time>
      </trkpt>
      <trkpt lat="43.55784" lon="6.38275">
        <ele>415</ele>
        <time>2024-11-20T14:21:34.000Z</time>
      </trkpt>
      <trkpt lat="43.55769" lon="6.38282">
        <ele>414.1</ele>
        <time>2024-11-20T14:21:48.000Z</time>
      </trkpt>
      <trkpt lat="43.55762" lon="6.38286">
        <ele>414</ele>
        <time>2024-11-20T14:21:54.000Z</time>
      </trkpt>
      <trkpt lat="43.55754" lon="6.38289">
        <ele>413.8</ele>
        <time>2024-11-20T14:22:01.000Z</time>
      </trkpt>
      <trkpt lat="43.55746" lon="6.38293">
        <ele>414.1</ele>
        <time>2024-11-20T14:22:09.000Z</time>
      </trkpt>
      <trkpt lat="43.55738" lon="6.38296">
        <ele>414.5</ele>
        <time>2024-11-20T14:22:16.000Z</time>
      </trkpt>
      <trkpt lat="43.5573" lon="6.383">
        <ele>414.7</ele>
        <time>2024-11-20T14:22:23.000Z</time>
      </trkpt>
      <trkpt lat="43.55721" lon="6.38303">
        <ele>414.9</ele>
        <time>2024-11-20T14:22:30.000Z</time>
      </trkpt>
      <trkpt lat="43.55713" lon="6.38305">
        <ele>414.9</ele>
        <time>2024-11-20T14:22:36.000Z</time>
      </trkpt>
      <trkpt lat="43.55712" lon="6.38305">
        <ele>414.9</ele>
        <time>2024-11-20T14:22:37.000Z</time>
      </trkpt>
      <trkpt lat="43.55698" lon="6.3831">
        <ele>414.9</ele>
        <time>2024-11-20T14:22:48.000Z</time>
      </trkpt>
      <trkpt lat="43.5569" lon="6.38313">
        <ele>414.8</ele>
        <time>2024-11-20T14:22:54.000Z</time>
      </trkpt>
      <trkpt lat="43.55682" lon="6.38317">
        <ele>414.4</ele>
        <time>2024-11-20T14:23:01.000Z</time>
      </trkpt>
      <trkpt lat="43.55675" lon="6.3832">
        <ele>413.9</ele>
        <time>2024-11-20T14:23:07.000Z</time>
      </trkpt>
      <trkpt lat="43.55667" lon="6.38323">
        <ele>413.5</ele>
        <time>2024-11-20T14:23:15.000Z</time>
      </trkpt>
      <trkpt lat="43.55659" lon="6.38327">
        <ele>413.2</ele>
        <time>2024-11-20T14:23:24.000Z</time>
      </trkpt>
      <trkpt lat="43.55651" lon="6.38332">
        <ele>413.1</ele>
        <time>2024-11-20T14:23:30.000Z</time>
      </trkpt>
      <trkpt lat="43.55643" lon="6.38337">
        <ele>412.7</ele>
        <time>2024-11-20T14:23:36.000Z</time>
      </trkpt>
      <trkpt lat="43.55635" lon="6.38343">
        <ele>412.1</ele>
        <time>2024-11-20T14:23:44.000Z</time>
      </trkpt>
      <trkpt lat="43.55634" lon="6.38344">
        <ele>412</ele>
        <time>2024-11-20T14:23:45.000Z</time>
      </trkpt>
      <trkpt lat="43.55621" lon="6.38353">
        <ele>411.6</ele>
        <time>2024-11-20T14:23:56.000Z</time>
      </trkpt>
      <trkpt lat="43.55613" lon="6.38357">
        <ele>411.7</ele>
        <time>2024-11-20T14:24:04.000Z</time>
      </trkpt>
      <trkpt lat="43.55606" lon="6.3836">
        <ele>411.8</ele>
        <time>2024-11-20T14:24:10.000Z</time>
      </trkpt>
      <trkpt lat="43.55597" lon="6.38362">
        <ele>411.3</ele>
        <time>2024-11-20T14:24:17.000Z</time>
      </trkpt>
      <trkpt lat="43.55589" lon="6.38365">
        <ele>411.5</ele>
        <time>2024-11-20T14:24:23.000Z</time>
      </trkpt>
      <trkpt lat="43.55581" lon="6.38367">
        <ele>412.3</ele>
        <time>2024-11-20T14:24:31.000Z</time>
      </trkpt>
      <trkpt lat="43.55572" lon="6.3837">
        <ele>412.6</ele>
        <time>2024-11-20T14:24:37.000Z</time>
      </trkpt>
      <trkpt lat="43.55564" lon="6.38372">
        <ele>412.7</ele>
        <time>2024-11-20T14:24:43.000Z</time>
      </trkpt>
      <trkpt lat="43.55555" lon="6.38374">
        <ele>412.4</ele>
        <time>2024-11-20T14:24:50.000Z</time>
      </trkpt>
      <trkpt lat="43.55554" lon="6.38374">
        <ele>412.4</ele>
        <time>2024-11-20T14:24:51.000Z</time>
      </trkpt>
      <trkpt lat="43.55539" lon="6.38379">
        <ele>412.2</ele>
        <time>2024-11-20T14:25:02.000Z</time>
      </trkpt>
      <trkpt lat="43.55531" lon="6.38382">
        <ele>412.3</ele>
        <time>2024-11-20T14:25:08.000Z</time>
      </trkpt>
      <trkpt lat="43.55522" lon="6.38385">
        <ele>412.2</ele>
        <time>2024-11-20T14:25:16.000Z</time>
      </trkpt>
      <trkpt lat="43.55514" lon="6.38386">
        <ele>411.7</ele>
        <time>2024-11-20T14:25:24.000Z</time>
      </trkpt>
      <trkpt lat="43.55505" lon="6.38388">
        <ele>411.4</ele>
        <time>2024-11-20T14:25:32.000Z</time>
      </trkpt>
      <trkpt lat="43.55497" lon="6.3839">
        <ele>410.6</ele>
        <time>2024-11-20T14:25:39.000Z</time>
      </trkpt>
      <trkpt lat="43.5549" lon="6.38394">
        <ele>409.6</ele>
        <time>2024-11-20T14:25:45.000Z</time>
      </trkpt>
      <trkpt lat="43.55482" lon="6.38397">
        <ele>409</ele>
        <time>2024-11-20T14:25:51.000Z</time>
      </trkpt>
      <trkpt lat="43.55481" lon="6.38397">
        <ele>408.9</ele>
        <time>2024-11-20T14:25:52.000Z</time>
      </trkpt>
      <trkpt lat="43.55465" lon="6.384">
        <ele>407.8</ele>
        <time>2024-11-20T14:26:03.000Z</time>
      </trkpt>
      <trkpt lat="43.55456" lon="6.38399">
        <ele>406.7</ele>
        <time>2024-11-20T14:26:11.000Z</time>
      </trkpt>
      <trkpt lat="43.55448" lon="6.38401">
        <ele>405.4</ele>
        <time>2024-11-20T14:26:21.000Z</time>
      </trkpt>
      <trkpt lat="43.5544" lon="6.384">
        <ele>404.2</ele>
        <time>2024-11-20T14:26:30.000Z</time>
      </trkpt>
      <trkpt lat="43.55432" lon="6.384">
        <ele>403.1</ele>
        <time>2024-11-20T14:26:37.000Z</time>
      </trkpt>
      <trkpt lat="43.55424" lon="6.38401">
        <ele>401.8</ele>
        <time>2024-11-20T14:26:44.000Z</time>
      </trkpt>
      <trkpt lat="43.55416" lon="6.38403">
        <ele>401.1</ele>
        <time>2024-11-20T14:26:49.000Z</time>
      </trkpt>
      <trkpt lat="43.55408" lon="6.38406">
        <ele>400.2</ele>
        <time>2024-11-20T14:26:56.000Z</time>
      </trkpt>
      <trkpt lat="43.55407" lon="6.38406">
        <ele>400</ele>
        <time>2024-11-20T14:26:57.000Z</time>
      </trkpt>
      <trkpt lat="43.55392" lon="6.38412">
        <ele>397.2</ele>
        <time>2024-11-20T14:27:15.000Z</time>
      </trkpt>
      <trkpt lat="43.55384" lon="6.38416">
        <ele>396.9</ele>
        <time>2024-11-20T14:27:22.000Z</time>
      </trkpt>
      <trkpt lat="43.55376" lon="6.38419">
        <ele>396.5</ele>
        <time>2024-11-20T14:27:29.000Z</time>
      </trkpt>
      <trkpt lat="43.55368" lon="6.38423">
        <ele>395.7</ele>
        <time>2024-11-20T14:27:38.000Z</time>
      </trkpt>
      <trkpt lat="43.5536" lon="6.38427">
        <ele>395.1</ele>
        <time>2024-11-20T14:27:46.000Z</time>
      </trkpt>
      <trkpt lat="43.55352" lon="6.38431">
        <ele>394.3</ele>
        <time>2024-11-20T14:27:56.000Z</time>
      </trkpt>
      <trkpt lat="43.55345" lon="6.38436">
        <ele>393.4</ele>
        <time>2024-11-20T14:28:04.000Z</time>
      </trkpt>
      <trkpt lat="43.55344" lon="6.38437">
        <ele>393.3</ele>
        <time>2024-11-20T14:28:05.000Z</time>
      </trkpt>
      <trkpt lat="43.55332" lon="6.38449">
        <ele>392.2</ele>
        <time>2024-11-20T14:28:16.000Z</time>
      </trkpt>
      <trkpt lat="43.55326" lon="6.38455">
        <ele>391.6</ele>
        <time>2024-11-20T14:28:22.000Z</time>
      </trkpt>
      <trkpt lat="43.5532" lon="6.38463">
        <ele>391</ele>
        <time>2024-11-20T14:28:27.000Z</time>
      </trkpt>
      <trkpt lat="43.55314" lon="6.38472">
        <ele>390.2</ele>
        <time>2024-11-20T14:28:34.000Z</time>
      </trkpt>
      <trkpt lat="43.55307" lon="6.38478">
        <ele>389.4</ele>
        <time>2024-11-20T14:28:43.000Z</time>
      </trkpt>
      <trkpt lat="43.55299" lon="6.38483">
        <ele>388.8</ele>
        <time>2024-11-20T14:28:53.000Z</time>
      </trkpt>
      <trkpt lat="43.55291" lon="6.38489">
        <ele>388</ele>
        <time>2024-11-20T14:29:02.000Z</time>
      </trkpt>
      <trkpt lat="43.55284" lon="6.38497">
        <ele>387.1</ele>
        <time>2024-11-20T14:29:11.000Z</time>
      </trkpt>
      <trkpt lat="43.55284" lon="6.38497">
        <ele>387.1</ele>
        <time>2024-11-20T14:29:12.000Z</time>
      </trkpt>
      <trkpt lat="43.55272" lon="6.38514">
        <ele>384.7</ele>
        <time>2024-11-20T14:29:30.000Z</time>
      </trkpt>
      <trkpt lat="43.55267" lon="6.38523">
        <ele>383.3</ele>
        <time>2024-11-20T14:29:39.000Z</time>
      </trkpt>
      <trkpt lat="43.55261" lon="6.38532">
        <ele>382.1</ele>
        <time>2024-11-20T14:29:48.000Z</time>
      </trkpt>
      <trkpt lat="43.55256" lon="6.38541">
        <ele>381.3</ele>
        <time>2024-11-20T14:29:56.000Z</time>
      </trkpt>
      <trkpt lat="43.5525" lon="6.38549">
        <ele>380.7</ele>
        <time>2024-11-20T14:30:04.000Z</time>
      </trkpt>
      <trkpt lat="43.55243" lon="6.38556">
        <ele>379.6</ele>
        <time>2024-11-20T14:30:14.000Z</time>
      </trkpt>
      <trkpt lat="43.55242" lon="6.38557">
        <ele>379.4</ele>
        <time>2024-11-20T14:30:15.000Z</time>
      </trkpt>
      <trkpt lat="43.55228" lon="6.38568">
        <ele>378</ele>
        <time>2024-11-20T14:30:31.000Z</time>
      </trkpt>
      <trkpt lat="43.55221" lon="6.38572">
        <ele>377.3</ele>
        <time>2024-11-20T14:30:38.000Z</time>
      </trkpt>
      <trkpt lat="43.55214" lon="6.38577">
        <ele>376.7</ele>
        <time>2024-11-20T14:30:44.000Z</time>
      </trkpt>
      <trkpt lat="43.55206" lon="6.38582">
        <ele>376.1</ele>
        <time>2024-11-20T14:30:51.000Z</time>
      </trkpt>
      <trkpt lat="43.55198" lon="6.38587">
        <ele>375.5</ele>
        <time>2024-11-20T14:30:57.000Z</time>
      </trkpt>
      <trkpt lat="43.5519" lon="6.38591">
        <ele>373.8</ele>
        <time>2024-11-20T14:31:08.000Z</time>
      </trkpt>
      <trkpt lat="43.55181" lon="6.38593">
        <ele>372.9</ele>
        <time>2024-11-20T14:31:16.000Z</time>
      </trkpt>
      <trkpt lat="43.5518" lon="6.38593">
        <ele>372.8</ele>
        <time>2024-11-20T14:31:17.000Z</time>
      </trkpt>
      <trkpt lat="43.55165" lon="6.38588">
        <ele>370.5</ele>
        <time>2024-11-20T14:31:32.000Z</time>
      </trkpt>
      <trkpt lat="43.55157" lon="6.38584">
        <ele>369.7</ele>
        <time>2024-11-20T14:31:38.000Z</time>
      </trkpt>
      <trkpt lat="43.55149" lon="6.38584">
        <ele>368.8</ele>
        <time>2024-11-20T14:31:47.000Z</time>
      </trkpt>
      <trkpt lat="43.55141" lon="6.38587">
        <ele>368.3</ele>
        <time>2024-11-20T14:31:54.000Z</time>
      </trkpt>
      <trkpt lat="43.55133" lon="6.38592">
        <ele>367.9</ele>
        <time>2024-11-20T14:31:59.000Z</time>
      </trkpt>
      <trkpt lat="43.55125" lon="6.38594">
        <ele>367.1</ele>
        <time>2024-11-20T14:32:07.000Z</time>
      </trkpt>
      <trkpt lat="43.55117" lon="6.38598">
        <ele>366.4</ele>
        <time>2024-11-20T14:32:14.000Z</time>
      </trkpt>
      <trkpt lat="43.55109" lon="6.38602">
        <ele>365.4</ele>
        <time>2024-11-20T14:32:21.000Z</time>
      </trkpt>
      <trkpt lat="43.55108" lon="6.38602">
        <ele>365.3</ele>
        <time>2024-11-20T14:32:22.000Z</time>
      </trkpt>
      <trkpt lat="43.55094" lon="6.38615">
        <ele>364</ele>
        <time>2024-11-20T14:32:37.000Z</time>
      </trkpt>
      <trkpt lat="43.55088" lon="6.38622">
        <ele>363.5</ele>
        <time>2024-11-20T14:32:44.000Z</time>
      </trkpt>
      <trkpt lat="43.55081" lon="6.3863">
        <ele>363.2</ele>
        <time>2024-11-20T14:32:51.000Z</time>
      </trkpt>
      <trkpt lat="43.55075" lon="6.38638">
        <ele>362.9</ele>
        <time>2024-11-20T14:32:58.000Z</time>
      </trkpt>
      <trkpt lat="43.55067" lon="6.38643">
        <ele>362.6</ele>
        <time>2024-11-20T14:33:07.000Z</time>
      </trkpt>
      <trkpt lat="43.5506" lon="6.38648">
        <ele>362.5</ele>
        <time>2024-11-20T14:33:12.000Z</time>
      </trkpt>
      <trkpt lat="43.55052" lon="6.38653">
        <ele>362.4</ele>
        <time>2024-11-20T14:33:21.000Z</time>
      </trkpt>
      <trkpt lat="43.55044" lon="6.38657">
        <ele>362.3</ele>
        <time>2024-11-20T14:33:30.000Z</time>
      </trkpt>
      <trkpt lat="43.55043" lon="6.38657">
        <ele>362.3</ele>
        <time>2024-11-20T14:33:31.000Z</time>
      </trkpt>
      <trkpt lat="43.55027" lon="6.38658">
        <ele>361.7</ele>
        <time>2024-11-20T14:33:45.000Z</time>
      </trkpt>
      <trkpt lat="43.55018" lon="6.38659">
        <ele>361.1</ele>
        <time>2024-11-20T14:33:51.000Z</time>
      </trkpt>
      <trkpt lat="43.55009" lon="6.38659">
        <ele>360.4</ele>
        <time>2024-11-20T14:34:01.000Z</time>
      </trkpt>
      <trkpt lat="43.55001" lon="6.3866">
        <ele>359.8</ele>
        <time>2024-11-20T14:34:07.000Z</time>
      </trkpt>
      <trkpt lat="43.54992" lon="6.38661">
        <ele>359.2</ele>
        <time>2024-11-20T14:34:15.000Z</time>
      </trkpt>
      <trkpt lat="43.54984" lon="6.38662">
        <ele>358.9</ele>
        <time>2024-11-20T14:34:21.000Z</time>
      </trkpt>
      <trkpt lat="43.54975" lon="6.38662">
        <ele>358.6</ele>
        <time>2024-11-20T14:34:28.000Z</time>
      </trkpt>
      <trkpt lat="43.54968" lon="6.38662">
        <ele>358</ele>
        <time>2024-11-20T14:34:35.000Z</time>
      </trkpt>
      <trkpt lat="43.54966" lon="6.38663">
        <ele>357.9</ele>
        <time>2024-11-20T14:34:36.000Z</time>
      </trkpt>
      <trkpt lat="43.54953" lon="6.38671">
        <ele>355.9</ele>
        <time>2024-11-20T14:34:47.000Z</time>
      </trkpt>
      <trkpt lat="43.54946" lon="6.38678">
        <ele>355</ele>
        <time>2024-11-20T14:34:56.000Z</time>
      </trkpt>
      <trkpt lat="43.5494" lon="6.38686">
        <ele>354.4</ele>
        <time>2024-11-20T14:35:02.000Z</time>
      </trkpt>
      <trkpt lat="43.54934" lon="6.38694">
        <ele>353.6</ele>
        <time>2024-11-20T14:35:11.000Z</time>
      </trkpt>
      <trkpt lat="43.54927" lon="6.38701">
        <ele>352.9</ele>
        <time>2024-11-20T14:35:19.000Z</time>
      </trkpt>
      <trkpt lat="43.54919" lon="6.38703">
        <ele>352.1</ele>
        <time>2024-11-20T14:35:28.000Z</time>
      </trkpt>
      <trkpt lat="43.54912" lon="6.3871">
        <ele>351</ele>
        <time>2024-11-20T14:35:35.000Z</time>
      </trkpt>
      <trkpt lat="43.54905" lon="6.38716">
        <ele>350.1</ele>
        <time>2024-11-20T14:35:41.000Z</time>
      </trkpt>
      <trkpt lat="43.54903" lon="6.38717">
        <ele>349.9</ele>
        <time>2024-11-20T14:35:42.000Z</time>
      </trkpt>
      <trkpt lat="43.54893" lon="6.38729">
        <ele>348.7</ele>
        <time>2024-11-20T14:35:51.000Z</time>
      </trkpt>
      <trkpt lat="43.54888" lon="6.38737">
        <ele>348.1</ele>
        <time>2024-11-20T14:35:56.000Z</time>
      </trkpt>
      <trkpt lat="43.54883" lon="6.38748">
        <ele>347.3</ele>
        <time>2024-11-20T14:36:03.000Z</time>
      </trkpt>
      <trkpt lat="43.54879" lon="6.38759">
        <ele>345.9</ele>
        <time>2024-11-20T14:36:12.000Z</time>
      </trkpt>
      <trkpt lat="43.54874" lon="6.38768">
        <ele>344.7</ele>
        <time>2024-11-20T14:36:20.000Z</time>
      </trkpt>
      <trkpt lat="43.54868" lon="6.38778">
        <ele>343.7</ele>
        <time>2024-11-20T14:36:28.000Z</time>
      </trkpt>
      <trkpt lat="43.54859" lon="6.38778">
        <ele>342.7</ele>
        <time>2024-11-20T14:36:36.000Z</time>
      </trkpt>
      <trkpt lat="43.54851" lon="6.38775">
        <ele>342.1</ele>
        <time>2024-11-20T14:36:42.000Z</time>
      </trkpt>
      <trkpt lat="43.54842" lon="6.38772">
        <ele>341.6</ele>
        <time>2024-11-20T14:36:49.000Z</time>
      </trkpt>
      <trkpt lat="43.54841" lon="6.38772">
        <ele>341.6</ele>
        <time>2024-11-20T14:36:50.000Z</time>
      </trkpt>
      <trkpt lat="43.54827" lon="6.38777">
        <ele>340.7</ele>
        <time>2024-11-20T14:37:05.000Z</time>
      </trkpt>
      <trkpt lat="43.54821" lon="6.38783">
        <ele>340.4</ele>
        <time>2024-11-20T14:37:12.000Z</time>
      </trkpt>
      <trkpt lat="43.54814" lon="6.3879">
        <ele>340.2</ele>
        <time>2024-11-20T14:37:18.000Z</time>
      </trkpt>
      <trkpt lat="43.54807" lon="6.38796">
        <ele>340.1</ele>
        <time>2024-11-20T14:37:23.000Z</time>
      </trkpt>
      <trkpt lat="43.54801" lon="6.38804">
        <ele>340.1</ele>
        <time>2024-11-20T14:37:29.000Z</time>
      </trkpt>
      <trkpt lat="43.54794" lon="6.38812">
        <ele>340</ele>
        <time>2024-11-20T14:37:36.000Z</time>
      </trkpt>
      <trkpt lat="43.54789" lon="6.38821">
        <ele>340</ele>
        <time>2024-11-20T14:37:44.000Z</time>
      </trkpt>
      <trkpt lat="43.54785" lon="6.38832">
        <ele>340.2</ele>
        <time>2024-11-20T14:37:53.000Z</time>
      </trkpt>
      <trkpt lat="43.54784" lon="6.38833">
        <ele>340.2</ele>
        <time>2024-11-20T14:37:54.000Z</time>
      </trkpt>
      <trkpt lat="43.54775" lon="6.3885">
        <ele>339.7</ele>
        <time>2024-11-20T14:38:07.000Z</time>
      </trkpt>
      <trkpt lat="43.5477" lon="6.3886">
        <ele>338.6</ele>
        <time>2024-11-20T14:38:15.000Z</time>
      </trkpt>
      <trkpt lat="43.54765" lon="6.3887">
        <ele>337.5</ele>
        <time>2024-11-20T14:38:23.000Z</time>
      </trkpt>
      <trkpt lat="43.5476" lon="6.3888">
        <ele>336.7</ele>
        <time>2024-11-20T14:38:30.000Z</time>
      </trkpt>
      <trkpt lat="43.54755" lon="6.38888">
        <ele>336.1</ele>
        <time>2024-11-20T14:38:37.000Z</time>
      </trkpt>
      <trkpt lat="43.54749" lon="6.38895">
        <ele>335.6</ele>
        <time>2024-11-20T14:38:43.000Z</time>
      </trkpt>
      <trkpt lat="43.54743" lon="6.38903">
        <ele>335</ele>
        <time>2024-11-20T14:38:53.000Z</time>
      </trkpt>
      <trkpt lat="43.5474" lon="6.38914">
        <ele>334.5</ele>
        <time>2024-11-20T14:39:03.000Z</time>
      </trkpt>
      <trkpt lat="43.5474" lon="6.38915">
        <ele>334.4</ele>
        <time>2024-11-20T14:39:04.000Z</time>
      </trkpt>
      <trkpt lat="43.5473" lon="6.38933">
        <ele>333.2</ele>
        <time>2024-11-20T14:39:19.000Z</time>
      </trkpt>
      <trkpt lat="43.54725" lon="6.38943">
        <ele>332.4</ele>
        <time>2024-11-20T14:39:28.000Z</time>
      </trkpt>
      <trkpt lat="43.54721" lon="6.38951">
        <ele>331.9</ele>
        <time>2024-11-20T14:39:35.000Z</time>
      </trkpt>
      <trkpt lat="43.54716" lon="6.3896">
        <ele>331.7</ele>
        <time>2024-11-20T14:39:40.000Z</time>
      </trkpt>
      <trkpt lat="43.54711" lon="6.38969">
        <ele>331.4</ele>
        <time>2024-11-20T14:39:46.000Z</time>
      </trkpt>
      <trkpt lat="43.54706" lon="6.38979">
        <ele>331.3</ele>
        <time>2024-11-20T14:39:52.000Z</time>
      </trkpt>
      <trkpt lat="43.54701" lon="6.38988">
        <ele>330.8</ele>
        <time>2024-11-20T14:40:00.000Z</time>
      </trkpt>
      <trkpt lat="43.54695" lon="6.38995">
        <ele>330.4</ele>
        <time>2024-11-20T14:40:07.000Z</time>
      </trkpt>
      <trkpt lat="43.54694" lon="6.38996">
        <ele>330.3</ele>
        <time>2024-11-20T14:40:08.000Z</time>
      </trkpt>
      <trkpt lat="43.54684" lon="6.39011">
        <ele>329.2</ele>
        <time>2024-11-20T14:40:23.000Z</time>
      </trkpt>
      <trkpt lat="43.54679" lon="6.39018">
        <ele>328.7</ele>
        <time>2024-11-20T14:40:29.000Z</time>
      </trkpt>
      <trkpt lat="43.54673" lon="6.39028">
        <ele>328.6</ele>
        <time>2024-11-20T14:40:36.000Z</time>
      </trkpt>
      <trkpt lat="43.54669" lon="6.39038">
        <ele>328.6</ele>
        <time>2024-11-20T14:40:45.000Z</time>
      </trkpt>
      <trkpt lat="43.54665" lon="6.39049">
        <ele>328.8</ele>
        <time>2024-11-20T14:40:53.000Z</time>
      </trkpt>
      <trkpt lat="43.54661" lon="6.39059">
        <ele>329.1</ele>
        <time>2024-11-20T14:41:04.000Z</time>
      </trkpt>
      <trkpt lat="43.54655" lon="6.39068">
        <ele>329.3</ele>
        <time>2024-11-20T14:41:13.000Z</time>
      </trkpt>
      <trkpt lat="43.54655" lon="6.39069">
        <ele>329.3</ele>
        <time>2024-11-20T14:41:14.000Z</time>
      </trkpt>
      <trkpt lat="43.54643" lon="6.39081">
        <ele>329.7</ele>
        <time>2024-11-20T14:41:25.000Z</time>
      </trkpt>
      <trkpt lat="43.54636" lon="6.39086">
        <ele>330</ele>
        <time>2024-11-20T14:41:30.000Z</time>
      </trkpt>
      <trkpt lat="43.5463" lon="6.39091">
        <ele>330</ele>
        <time>2024-11-20T14:41:35.000Z</time>
      </trkpt>
      <trkpt lat="43.54622" lon="6.39097">
        <ele>329.8</ele>
        <time>2024-11-20T14:41:41.000Z</time>
      </trkpt>
      <trkpt lat="43.54615" lon="6.39102">
        <ele>329.2</ele>
        <time>2024-11-20T14:41:50.000Z</time>
      </trkpt>
      <trkpt lat="43.54608" lon="6.39107">
        <ele>328.9</ele>
        <time>2024-11-20T14:41:56.000Z</time>
      </trkpt>
      <trkpt lat="43.54601" lon="6.39112">
        <ele>328.6</ele>
        <time>2024-11-20T14:42:01.000Z</time>
      </trkpt>
      <trkpt lat="43.54593" lon="6.39116">
        <ele>328.4</ele>
        <time>2024-11-20T14:42:07.000Z</time>
      </trkpt>
      <trkpt lat="43.54587" lon="6.3912">
        <ele>328.1</ele>
        <time>2024-11-20T14:42:12.000Z</time>
      </trkpt>
      <trkpt lat="43.54579" lon="6.39124">
        <ele>327.9</ele>
        <time>2024-11-20T14:42:16.000Z</time>
      </trkpt>
      <trkpt lat="43.54577" lon="6.39125">
        <ele>327.8</ele>
        <time>2024-11-20T14:42:17.000Z</time>
      </trkpt>
      <trkpt lat="43.54564" lon="6.39133">
        <ele>326.8</ele>
        <time>2024-11-20T14:42:28.000Z</time>
      </trkpt>
      <trkpt lat="43.54555" lon="6.39132">
        <ele>325.6</ele>
        <time>2024-11-20T14:42:40.000Z</time>
      </trkpt>
      <trkpt lat="43.54546" lon="6.39129">
        <ele>324.1</ele>
        <time>2024-11-20T14:42:48.000Z</time>
      </trkpt>
      <trkpt lat="43.54539" lon="6.39126">
        <ele>324</ele>
        <time>2024-11-20T14:42:54.000Z</time>
      </trkpt>
      <trkpt lat="43.54531" lon="6.39123">
        <ele>323.6</ele>
        <time>2024-11-20T14:43:01.000Z</time>
      </trkpt>
      <trkpt lat="43.54523" lon="6.3912">
        <ele>323</ele>
        <time>2024-11-20T14:43:07.000Z</time>
      </trkpt>
      <trkpt lat="43.54516" lon="6.39117">
        <ele>322.5</ele>
        <time>2024-11-20T14:43:12.000Z</time>
      </trkpt>
      <trkpt lat="43.54508" lon="6.39112">
        <ele>321.9</ele>
        <time>2024-11-20T14:43:18.000Z</time>
      </trkpt>
      <trkpt lat="43.54506" lon="6.39112">
        <ele>321.9</ele>
        <time>2024-11-20T14:43:19.000Z</time>
      </trkpt>
      <trkpt lat="43.54493" lon="6.39105">
        <ele>321.8</ele>
        <time>2024-11-20T14:43:28.000Z</time>
      </trkpt>
      <trkpt lat="43.54486" lon="6.39101">
        <ele>321.7</ele>
        <time>2024-11-20T14:43:33.000Z</time>
      </trkpt>
      <trkpt lat="43.54478" lon="6.39097">
        <ele>321.6</ele>
        <time>2024-11-20T14:43:38.000Z</time>
      </trkpt>
      <trkpt lat="43.5447" lon="6.39093">
        <ele>321.7</ele>
        <time>2024-11-20T14:43:45.000Z</time>
      </trkpt>
      <trkpt lat="43.54462" lon="6.3909">
        <ele>321.8</ele>
        <time>2024-11-20T14:43:51.000Z</time>
      </trkpt>
      <trkpt lat="43.54454" lon="6.3909">
        <ele>322</ele>
        <time>2024-11-20T14:43:58.000Z</time>
      </trkpt>
      <trkpt lat="43.54447" lon="6.39095">
        <ele>322.1</ele>
        <time>2024-11-20T14:44:04.000Z</time>
      </trkpt>
      <trkpt lat="43.54439" lon="6.39099">
        <ele>322.2</ele>
        <time>2024-11-20T14:44:10.000Z</time>
      </trkpt>
      <trkpt lat="43.5443" lon="6.39101">
        <ele>322.3</ele>
        <time>2024-11-20T14:44:18.000Z</time>
      </trkpt>
      <trkpt lat="43.54422" lon="6.391">
        <ele>322.5</ele>
        <time>2024-11-20T14:44:24.000Z</time>
      </trkpt>
      <trkpt lat="43.54421" lon="6.391">
        <ele>322.5</ele>
        <time>2024-11-20T14:44:25.000Z</time>
      </trkpt>
      <trkpt lat="43.54406" lon="6.39099">
        <ele>323.7</ele>
        <time>2024-11-20T14:44:38.000Z</time>
      </trkpt>
      <trkpt lat="43.54398" lon="6.39099">
        <ele>324.5</ele>
        <time>2024-11-20T14:44:45.000Z</time>
      </trkpt>
      <trkpt lat="43.5439" lon="6.391">
        <ele>325</ele>
        <time>2024-11-20T14:44:51.000Z</time>
      </trkpt>
      <trkpt lat="43.54383" lon="6.39101">
        <ele>325.3</ele>
        <time>2024-11-20T14:44:58.000Z</time>
      </trkpt>
      <trkpt lat="43.54375" lon="6.39106">
        <ele>325.5</ele>
        <time>2024-11-20T14:45:05.000Z</time>
      </trkpt>
      <trkpt lat="43.5437" lon="6.39115">
        <ele>325.7</ele>
        <time>2024-11-20T14:45:13.000Z</time>
      </trkpt>
      <trkpt lat="43.54364" lon="6.39124">
        <ele>326</ele>
        <time>2024-11-20T14:45:20.000Z</time>
      </trkpt>
      <trkpt lat="43.5436" lon="6.39134">
        <ele>325.5</ele>
        <time>2024-11-20T14:45:28.000Z</time>
      </trkpt>
      <trkpt lat="43.54359" lon="6.39135">
        <ele>325.4</ele>
        <time>2024-11-20T14:45:29.000Z</time>
      </trkpt>
      <trkpt lat="43.54349" lon="6.39151">
        <ele>324.1</ele>
        <time>2024-11-20T14:45:43.000Z</time>
      </trkpt>
      <trkpt lat="43.54344" lon="6.3916">
        <ele>323.7</ele>
        <time>2024-11-20T14:45:50.000Z</time>
      </trkpt>
      <trkpt lat="43.54339" lon="6.39169">
        <ele>323.2</ele>
        <time>2024-11-20T14:45:56.000Z</time>
      </trkpt>
      <trkpt lat="43.54333" lon="6.39179">
        <ele>322.6</ele>
        <time>2024-11-20T14:46:03.000Z</time>
      </trkpt>
      <trkpt lat="43.54327" lon="6.39187">
        <ele>322</ele>
        <time>2024-11-20T14:46:10.000Z</time>
      </trkpt>
      <trkpt lat="43.54321" lon="6.39196">
        <ele>320.9</ele>
        <time>2024-11-20T14:46:18.000Z</time>
      </trkpt>
      <trkpt lat="43.54316" lon="6.39202">
        <ele>320.1</ele>
        <time>2024-11-20T14:46:23.000Z</time>
      </trkpt>
      <trkpt lat="43.54309" lon="6.39207">
        <ele>319.8</ele>
        <time>2024-11-20T14:46:27.000Z</time>
      </trkpt>
      <trkpt lat="43.54301" lon="6.39211">
        <ele>319.4</ele>
        <time>2024-11-20T14:46:34.000Z</time>
      </trkpt>
      <trkpt lat="43.543" lon="6.39212">
        <ele>319.3</ele>
        <time>2024-11-20T14:46:35.000Z</time>
      </trkpt>
      <trkpt lat="43.54286" lon="6.39217">
        <ele>318.2</ele>
        <time>2024-11-20T14:46:46.000Z</time>
      </trkpt>
      <trkpt lat="43.54278" lon="6.39218">
        <ele>317.4</ele>
        <time>2024-11-20T14:46:54.000Z</time>
      </trkpt>
      <trkpt lat="43.5427" lon="6.39217">
        <ele>316.1</ele>
        <time>2024-11-20T14:47:03.000Z</time>
      </trkpt>
      <trkpt lat="43.54261" lon="6.3922">
        <ele>314.7</ele>
        <time>2024-11-20T14:48:03.000Z</time>
      </trkpt>
      <trkpt lat="43.54261" lon="6.3922">
        <ele>314.7</ele>
        <time>2024-11-20T14:48:04.000Z</time>
      </trkpt>
      <trkpt lat="43.54261" lon="6.39219">
        <ele>315.9</ele>
        <time>2024-11-20T14:49:27.000Z</time>
      </trkpt>
      <trkpt lat="43.5426" lon="6.39219">
        <ele>315.9</ele>
        <time>2024-11-20T14:49:28.000Z</time>
      </trkpt>
      <trkpt lat="43.54245" lon="6.39218">
        <ele>315.5</ele>
        <time>2024-11-20T14:50:19.000Z</time>
      </trkpt>
      <trkpt lat="43.54236" lon="6.39216">
        <ele>313.9</ele>
        <time>2024-11-20T14:50:35.000Z</time>
      </trkpt>
      <trkpt lat="43.54235" lon="6.39217">
        <ele>313.8</ele>
        <time>2024-11-20T14:50:36.000Z</time>
      </trkpt>
      <trkpt lat="43.5422" lon="6.39214">
        <ele>312.2</ele>
        <time>2024-11-20T14:50:53.000Z</time>
      </trkpt>
      <trkpt lat="43.54212" lon="6.39214">
        <ele>310.9</ele>
        <time>2024-11-20T14:51:02.000Z</time>
      </trkpt>
      <trkpt lat="43.54204" lon="6.39218">
        <ele>310.2</ele>
        <time>2024-11-20T14:51:10.000Z</time>
      </trkpt>
      <trkpt lat="43.54197" lon="6.39224">
        <ele>309.5</ele>
        <time>2024-11-20T14:51:17.000Z</time>
      </trkpt>
      <trkpt lat="43.5419" lon="6.39231">
        <ele>309.1</ele>
        <time>2024-11-20T14:51:24.000Z</time>
      </trkpt>
      <trkpt lat="43.54183" lon="6.39235">
        <ele>308.6</ele>
        <time>2024-11-20T14:51:31.000Z</time>
      </trkpt>
      <trkpt lat="43.54174" lon="6.39236">
        <ele>308</ele>
        <time>2024-11-20T14:51:39.000Z</time>
      </trkpt>
      <trkpt lat="43.54173" lon="6.39235">
        <ele>308</ele>
        <time>2024-11-20T14:51:40.000Z</time>
      </trkpt>
      <trkpt lat="43.54157" lon="6.39232">
        <ele>306.8</ele>
        <time>2024-11-20T14:51:54.000Z</time>
      </trkpt>
      <trkpt lat="43.54149" lon="6.39229">
        <ele>306.6</ele>
        <time>2024-11-20T14:52:03.000Z</time>
      </trkpt>
      <trkpt lat="43.54141" lon="6.39228">
        <ele>306.7</ele>
        <time>2024-11-20T14:52:09.000Z</time>
      </trkpt>
      <trkpt lat="43.54132" lon="6.39229">
        <ele>306.7</ele>
        <time>2024-11-20T14:52:18.000Z</time>
      </trkpt>
      <trkpt lat="43.54124" lon="6.3923">
        <ele>306.8</ele>
        <time>2024-11-20T14:53:15.000Z</time>
      </trkpt>
      <trkpt lat="43.54123" lon="6.3923">
        <ele>306.8</ele>
        <time>2024-11-20T14:53:16.000Z</time>
      </trkpt>
      <trkpt lat="43.54108" lon="6.39229">
        <ele>306.8</ele>
        <time>2024-11-20T14:53:33.000Z</time>
      </trkpt>
      <trkpt lat="43.54099" lon="6.39229">
        <ele>306.9</ele>
        <time>2024-11-20T14:53:44.000Z</time>
      </trkpt>
      <trkpt lat="43.54091" lon="6.39229">
        <ele>307.2</ele>
        <time>2024-11-20T14:53:53.000Z</time>
      </trkpt>
      <trkpt lat="43.54082" lon="6.39229">
        <ele>308</ele>
        <time>2024-11-20T14:54:04.000Z</time>
      </trkpt>
      <trkpt lat="43.54074" lon="6.39231">
        <ele>309</ele>
        <time>2024-11-20T14:54:14.000Z</time>
      </trkpt>
      <trkpt lat="43.54066" lon="6.39235">
        <ele>309.6</ele>
        <time>2024-11-20T14:54:24.000Z</time>
      </trkpt>
      <trkpt lat="43.54065" lon="6.39236">
        <ele>309.6</ele>
        <time>2024-11-20T14:54:25.000Z</time>
      </trkpt>
      <trkpt lat="43.54052" lon="6.39251">
        <ele>309.5</ele>
        <time>2024-11-20T14:54:39.000Z</time>
      </trkpt>
      <trkpt lat="43.54045" lon="6.39254">
        <ele>309.5</ele>
        <time>2024-11-20T14:54:44.000Z</time>
      </trkpt>
      <trkpt lat="43.54038" lon="6.39262">
        <ele>309.4</ele>
        <time>2024-11-20T14:54:51.000Z</time>
      </trkpt>
      <trkpt lat="43.5403" lon="6.39268">
        <ele>309.2</ele>
        <time>2024-11-20T14:54:57.000Z</time>
      </trkpt>
      <trkpt lat="43.54024" lon="6.39274">
        <ele>308.8</ele>
        <time>2024-11-20T14:55:04.000Z</time>
      </trkpt>
      <trkpt lat="43.54016" lon="6.39279">
        <ele>308.7</ele>
        <time>2024-11-20T14:55:11.000Z</time>
      </trkpt>
      <trkpt lat="43.54008" lon="6.39284">
        <ele>308.6</ele>
        <time>2024-11-20T14:55:19.000Z</time>
      </trkpt>
      <trkpt lat="43.54001" lon="6.39288">
        <ele>308.6</ele>
        <time>2024-11-20T14:55:26.000Z</time>
      </trkpt>
      <trkpt lat="43.54" lon="6.39289">
        <ele>308.6</ele>
        <time>2024-11-20T14:55:27.000Z</time>
      </trkpt>
      <trkpt lat="43.53986" lon="6.39296">
        <ele>307.9</ele>
        <time>2024-11-20T14:55:40.000Z</time>
      </trkpt>
      <trkpt lat="43.53977" lon="6.39297">
        <ele>307</ele>
        <time>2024-11-20T14:55:47.000Z</time>
      </trkpt>
      <trkpt lat="43.5397" lon="6.39298">
        <ele>306.6</ele>
        <time>2024-11-20T14:55:52.000Z</time>
      </trkpt>
      <trkpt lat="43.53962" lon="6.393">
        <ele>306.4</ele>
        <time>2024-11-20T14:55:57.000Z</time>
      </trkpt>
      <trkpt lat="43.53955" lon="6.39302">
        <ele>306.3</ele>
        <time>2024-11-20T14:56:02.000Z</time>
      </trkpt>
      <trkpt lat="43.53946" lon="6.39303">
        <ele>306.2</ele>
        <time>2024-11-20T14:56:08.000Z</time>
      </trkpt>
      <trkpt lat="43.53938" lon="6.39306">
        <ele>305.9</ele>
        <time>2024-11-20T14:56:14.000Z</time>
      </trkpt>
      <trkpt lat="43.53932" lon="6.39311">
        <ele>305.6</ele>
        <time>2024-11-20T14:56:19.000Z</time>
      </trkpt>
      <trkpt lat="43.53923" lon="6.39314">
        <ele>305.4</ele>
        <time>2024-11-20T14:56:24.000Z</time>
      </trkpt>
      <trkpt lat="43.53915" lon="6.39319">
        <ele>305.2</ele>
        <time>2024-11-20T14:56:30.000Z</time>
      </trkpt>
      <trkpt lat="43.53914" lon="6.3932">
        <ele>305.1</ele>
        <time>2024-11-20T14:56:31.000Z</time>
      </trkpt>
      <trkpt lat="43.539" lon="6.39328">
        <ele>304</ele>
        <time>2024-11-20T14:56:43.000Z</time>
      </trkpt>
      <trkpt lat="43.53892" lon="6.39332">
        <ele>302.8</ele>
        <time>2024-11-20T14:56:51.000Z</time>
      </trkpt>
      <trkpt lat="43.53884" lon="6.39336">
        <ele>302</ele>
        <time>2024-11-20T14:56:59.000Z</time>
      </trkpt>
      <trkpt lat="43.53875" lon="6.39336">
        <ele>301.3</ele>
        <time>2024-11-20T14:57:06.000Z</time>
      </trkpt>
      <trkpt lat="43.53867" lon="6.39332">
        <ele>301</ele>
        <time>2024-11-20T14:57:13.000Z</time>
      </trkpt>
      <trkpt lat="43.53859" lon="6.39327">
        <ele>300.7</ele>
        <time>2024-11-20T14:57:20.000Z</time>
      </trkpt>
      <trkpt lat="43.53852" lon="6.39323">
        <ele>300.3</ele>
        <time>2024-11-20T14:57:26.000Z</time>
      </trkpt>
      <trkpt lat="43.53844" lon="6.39318">
        <ele>300.1</ele>
        <time>2024-11-20T14:57:33.000Z</time>
      </trkpt>
      <trkpt lat="43.53843" lon="6.39317">
        <ele>300</ele>
        <time>2024-11-20T14:57:34.000Z</time>
      </trkpt>
      <trkpt lat="43.53831" lon="6.39305">
        <ele>299.8</ele>
        <time>2024-11-20T14:57:47.000Z</time>
      </trkpt>
      <trkpt lat="43.53823" lon="6.393">
        <ele>299.8</ele>
        <time>2024-11-20T14:57:53.000Z</time>
      </trkpt>
      <trkpt lat="43.53816" lon="6.39294">
        <ele>299.8</ele>
        <time>2024-11-20T14:58:02.000Z</time>
      </trkpt>
      <trkpt lat="43.53808" lon="6.3929">
        <ele>299.7</ele>
        <time>2024-11-20T14:58:08.000Z</time>
      </trkpt>
      <trkpt lat="43.53801" lon="6.39288">
        <ele>299.6</ele>
        <time>2024-11-20T14:58:15.000Z</time>
      </trkpt>
      <trkpt lat="43.53792" lon="6.39286">
        <ele>299.3</ele>
        <time>2024-11-20T14:58:22.000Z</time>
      </trkpt>
      <trkpt lat="43.53784" lon="6.39284">
        <ele>298.8</ele>
        <time>2024-11-20T14:58:29.000Z</time>
      </trkpt>
      <trkpt lat="43.53775" lon="6.39281">
        <ele>297.8</ele>
        <time>2024-11-20T14:58:36.000Z</time>
      </trkpt>
      <trkpt lat="43.53774" lon="6.39281">
        <ele>297.7</ele>
        <time>2024-11-20T14:58:37.000Z</time>
      </trkpt>
      <trkpt lat="43.53758" lon="6.39276">
        <ele>296.6</ele>
        <time>2024-11-20T14:58:49.000Z</time>
      </trkpt>
      <trkpt lat="43.53752" lon="6.3927">
        <ele>296.2</ele>
        <time>2024-11-20T14:58:56.000Z</time>
      </trkpt>
      <trkpt lat="43.53745" lon="6.39264">
        <ele>296</ele>
        <time>2024-11-20T14:59:03.000Z</time>
      </trkpt>
      <trkpt lat="43.53736" lon="6.3926">
        <ele>295.8</ele>
        <time>2024-11-20T14:59:10.000Z</time>
      </trkpt>
      <trkpt lat="43.53728" lon="6.39262">
        <ele>295.9</ele>
        <time>2024-11-20T14:59:19.000Z</time>
      </trkpt>
      <trkpt lat="43.53721" lon="6.39268">
        <ele>296.4</ele>
        <time>2024-11-20T14:59:27.000Z</time>
      </trkpt>
      <trkpt lat="43.53714" lon="6.39276">
        <ele>297.1</ele>
        <time>2024-11-20T14:59:36.000Z</time>
      </trkpt>
      <trkpt lat="43.53707" lon="6.39281">
        <ele>298.7</ele>
        <time>2024-11-20T14:59:47.000Z</time>
      </trkpt>
      <trkpt lat="43.53706" lon="6.39281">
        <ele>298.8</ele>
        <time>2024-11-20T14:59:48.000Z</time>
      </trkpt>
      <trkpt lat="43.5369" lon="6.39282">
        <ele>300.3</ele>
        <time>2024-11-20T15:00:04.000Z</time>
      </trkpt>
      <trkpt lat="43.53682" lon="6.39277">
        <ele>301.3</ele>
        <time>2024-11-20T15:00:14.000Z</time>
      </trkpt>
      <trkpt lat="43.53674" lon="6.39274">
        <ele>302.1</ele>
        <time>2024-11-20T15:00:21.000Z</time>
      </trkpt>
      <trkpt lat="43.53665" lon="6.39277">
        <ele>303.1</ele>
        <time>2024-11-20T15:00:29.000Z</time>
      </trkpt>
      <trkpt lat="43.53658" lon="6.39281">
        <ele>303.3</ele>
        <time>2024-11-20T15:00:35.000Z</time>
      </trkpt>
      <trkpt lat="43.5365" lon="6.39286">
        <ele>303.3</ele>
        <time>2024-11-20T15:00:42.000Z</time>
      </trkpt>
      <trkpt lat="43.53643" lon="6.39292">
        <ele>303.2</ele>
        <time>2024-11-20T15:00:48.000Z</time>
      </trkpt>
      <trkpt lat="43.53641" lon="6.39292">
        <ele>303.2</ele>
        <time>2024-11-20T15:00:49.000Z</time>
      </trkpt>
      <trkpt lat="43.53627" lon="6.39301">
        <ele>302.1</ele>
        <time>2024-11-20T15:01:02.000Z</time>
      </trkpt>
      <trkpt lat="43.5362" lon="6.39304">
        <ele>301.8</ele>
        <time>2024-11-20T15:01:09.000Z</time>
      </trkpt>
      <trkpt lat="43.53612" lon="6.39308">
        <ele>301.6</ele>
        <time>2024-11-20T15:01:16.000Z</time>
      </trkpt>
      <trkpt lat="43.53605" lon="6.39312">
        <ele>301.3</ele>
        <time>2024-11-20T15:01:22.000Z</time>
      </trkpt>
      <trkpt lat="43.53597" lon="6.39317">
        <ele>301</ele>
        <time>2024-11-20T15:01:29.000Z</time>
      </trkpt>
      <trkpt lat="43.53589" lon="6.3932">
        <ele>300.8</ele>
        <time>2024-11-20T15:01:37.000Z</time>
      </trkpt>
      <trkpt lat="43.53581" lon="6.39326">
        <ele>300.6</ele>
        <time>2024-11-20T15:01:46.000Z</time>
      </trkpt>
      <trkpt lat="43.53573" lon="6.39332">
        <ele>300.6</ele>
        <time>2024-11-20T15:01:56.000Z</time>
      </trkpt>
      <trkpt lat="43.53572" lon="6.39332">
        <ele>300.6</ele>
        <time>2024-11-20T15:01:57.000Z</time>
      </trkpt>
      <trkpt lat="43.53557" lon="6.39335">
        <ele>300</ele>
        <time>2024-11-20T15:02:05.000Z</time>
      </trkpt>
      <trkpt lat="43.53549" lon="6.39339">
        <ele>300.4</ele>
        <time>2024-11-20T15:02:15.000Z</time>
      </trkpt>
      <trkpt lat="43.53544" lon="6.39349">
        <ele>300.3</ele>
        <time>2024-11-20T15:02:24.000Z</time>
      </trkpt>
      <trkpt lat="43.53539" lon="6.39357">
        <ele>300.3</ele>
        <time>2024-11-20T15:02:31.000Z</time>
      </trkpt>
      <trkpt lat="43.53535" lon="6.39367">
        <ele>300.5</ele>
        <time>2024-11-20T15:02:40.000Z</time>
      </trkpt>
      <trkpt lat="43.53534" lon="6.39379">
        <ele>301.3</ele>
        <time>2024-11-20T15:02:51.000Z</time>
      </trkpt>
      <trkpt lat="43.5353" lon="6.3939">
        <ele>302.2</ele>
        <time>2024-11-20T15:03:00.000Z</time>
      </trkpt>
      <trkpt lat="43.53529" lon="6.39391">
        <ele>302.2</ele>
        <time>2024-11-20T15:03:01.000Z</time>
      </trkpt>
      <trkpt lat="43.53519" lon="6.39408">
        <ele>303.9</ele>
        <time>2024-11-20T15:03:41.000Z</time>
      </trkpt>
      <trkpt lat="43.53512" lon="6.39402">
        <ele>304.4</ele>
        <time>2024-11-20T15:04:26.000Z</time>
      </trkpt>
      <trkpt lat="43.53512" lon="6.39401">
        <ele>304.4</ele>
        <time>2024-11-20T15:04:27.000Z</time>
      </trkpt>
      <trkpt lat="43.53498" lon="6.3939">
        <ele>306.5</ele>
        <time>2024-11-20T15:04:53.000Z</time>
      </trkpt>
      <trkpt lat="43.5349" lon="6.39385">
        <ele>307.5</ele>
        <time>2024-11-20T15:05:07.000Z</time>
      </trkpt>
      <trkpt lat="43.53481" lon="6.3938">
        <ele>309.3</ele>
        <time>2024-11-20T15:05:21.000Z</time>
      </trkpt>
      <trkpt lat="43.53474" lon="6.39373">
        <ele>312.3</ele>
        <time>2024-11-20T15:05:47.000Z</time>
      </trkpt>
      <trkpt lat="43.53474" lon="6.39373">
        <ele>312.3</ele>
        <time>2024-11-20T15:05:48.000Z</time>
      </trkpt>
      <trkpt lat="43.53466" lon="6.39367">
        <ele>313.9</ele>
        <time>2024-11-20T15:06:51.000Z</time>
      </trkpt>
      <trkpt lat="43.53458" lon="6.39369">
        <ele>314.1</ele>
        <time>2024-11-20T15:08:01.000Z</time>
      </trkpt>
      <trkpt lat="43.53446" lon="6.39386">
        <ele>314.7</ele>
        <time>2024-11-20T15:08:17.000Z</time>
      </trkpt>
      <trkpt lat="43.53442" lon="6.39397">
        <ele>314.8</ele>
        <time>2024-11-20T15:08:25.000Z</time>
      </trkpt>
      <trkpt lat="43.53443" lon="6.39408">
        <ele>314.7</ele>
        <time>2024-11-20T15:08:35.000Z</time>
      </trkpt>
      <trkpt lat="43.53441" lon="6.39418">
        <ele>314.6</ele>
        <time>2024-11-20T15:08:41.000Z</time>
      </trkpt>
      <trkpt lat="43.53438" lon="6.39429">
        <ele>314.5</ele>
        <time>2024-11-20T15:08:48.000Z</time>
      </trkpt>
      <trkpt lat="43.53436" lon="6.3944">
        <ele>314.5</ele>
        <time>2024-11-20T15:08:57.000Z</time>
      </trkpt>
      <trkpt lat="43.53434" lon="6.39451">
        <ele>314.5</ele>
        <time>2024-11-20T15:09:07.000Z</time>
      </trkpt>
      <trkpt lat="43.53434" lon="6.39452">
        <ele>314.5</ele>
        <time>2024-11-20T15:09:08.000Z</time>
      </trkpt>
      <trkpt lat="43.53427" lon="6.39472">
        <ele>313.4</ele>
        <time>2024-11-20T15:09:32.000Z</time>
      </trkpt>
      <trkpt lat="43.53425" lon="6.39484">
        <ele>313.2</ele>
        <time>2024-11-20T15:09:42.000Z</time>
      </trkpt>
      <trkpt lat="43.53423" lon="6.39495">
        <ele>313.1</ele>
        <time>2024-11-20T15:09:52.000Z</time>
      </trkpt>
      <trkpt lat="43.5342" lon="6.39506">
        <ele>312.9</ele>
        <time>2024-11-20T15:09:59.000Z</time>
      </trkpt>
      <trkpt lat="43.53418" lon="6.39518">
        <ele>312.9</ele>
        <time>2024-11-20T15:10:07.000Z</time>
      </trkpt>
      <trkpt lat="43.53416" lon="6.3953">
        <ele>313.2</ele>
        <time>2024-11-20T15:10:16.000Z</time>
      </trkpt>
      <trkpt lat="43.53416" lon="6.39531">
        <ele>313.2</ele>
        <time>2024-11-20T15:10:17.000Z</time>
      </trkpt>
      <trkpt lat="43.5341" lon="6.39552">
        <ele>312.9</ele>
        <time>2024-11-20T15:10:36.000Z</time>
      </trkpt>
      <trkpt lat="43.53403" lon="6.39557">
        <ele>312.6</ele>
        <time>2024-11-20T15:10:43.000Z</time>
      </trkpt>
      <trkpt lat="43.53397" lon="6.39566">
        <ele>312.4</ele>
        <time>2024-11-20T15:10:51.000Z</time>
      </trkpt>
      <trkpt lat="43.5339" lon="6.39573">
        <ele>312.4</ele>
        <time>2024-11-20T15:11:03.000Z</time>
      </trkpt>
      <trkpt lat="43.53383" lon="6.39579">
        <ele>312.3</ele>
        <time>2024-11-20T15:11:15.000Z</time>
      </trkpt>
      <trkpt lat="43.53375" lon="6.39583">
        <ele>312.2</ele>
        <time>2024-11-20T15:11:25.000Z</time>
      </trkpt>
      <trkpt lat="43.53374" lon="6.39583">
        <ele>312.1</ele>
        <time>2024-11-20T15:11:26.000Z</time>
      </trkpt>
      <trkpt lat="43.5336" lon="6.39576">
        <ele>312.1</ele>
        <time>2024-11-20T15:11:45.000Z</time>
      </trkpt>
      <trkpt lat="43.53352" lon="6.39573">
        <ele>312.1</ele>
        <time>2024-11-20T15:11:52.000Z</time>
      </trkpt>
      <trkpt lat="43.53344" lon="6.3957">
        <ele>312.1</ele>
        <time>2024-11-20T15:11:58.000Z</time>
      </trkpt>
      <trkpt lat="43.53337" lon="6.39566">
        <ele>311</ele>
        <time>2024-11-20T15:12:04.000Z</time>
      </trkpt>
      <trkpt lat="43.53333" lon="6.39564">
        <ele>311</ele>
        <time>2024-11-20T15:12:09.000Z</time>
      </trkpt>
      <trkpt lat="43.53327" lon="6.39562">
        <ele>311</ele>
        <time>2024-11-20T15:12:14.000Z</time>
      </trkpt>
      <trkpt lat="43.5332" lon="6.39557">
        <ele>311</ele>
        <time>2024-11-20T15:12:18.000Z</time>
      </trkpt>
      <trkpt lat="43.53312" lon="6.39557">
        <ele>311</ele>
        <time>2024-11-20T15:12:23.000Z</time>
      </trkpt>
      <trkpt lat="43.53306" lon="6.39548">
        <ele>310.9</ele>
        <time>2024-11-20T15:12:51.000Z</time>
      </trkpt>
      <trkpt lat="43.53303" lon="6.39559">
        <ele>309.7</ele>
        <time>2024-11-20T15:14:17.000Z</time>
      </trkpt>
      <trkpt lat="43.53303" lon="6.39559">
        <ele>309.7</ele>
        <time>2024-11-20T15:14:18.000Z</time>
      </trkpt>
      <trkpt lat="43.53305" lon="6.39581">
        <ele>308.8</ele>
        <time>2024-11-20T15:14:41.000Z</time>
      </trkpt>
      <trkpt lat="43.5331" lon="6.3959">
        <ele>308.2</ele>
        <time>2024-11-20T15:14:52.000Z</time>
      </trkpt>
      <trkpt lat="43.53313" lon="6.39598">
        <ele>307</ele>
        <time>2024-11-20T15:15:00.000Z</time>
      </trkpt>
      <trkpt lat="43.53317" lon="6.39603">
        <ele>306</ele>
        <time>2024-11-20T15:15:09.000Z</time>
      </trkpt>
      <trkpt lat="43.53321" lon="6.39606">
        <ele>305</ele>
        <time>2024-11-20T15:15:16.000Z</time>
      </trkpt>
      <trkpt lat="43.53326" lon="6.39613">
        <ele>305</ele>
        <time>2024-11-20T15:15:22.000Z</time>
      </trkpt>
      <trkpt lat="43.53334" lon="6.39613">
        <ele>305.8</ele>
        <time>2024-11-20T15:15:26.000Z</time>
      </trkpt>
      <trkpt lat="43.53342" lon="6.39619">
        <ele>305.6</ele>
        <time>2024-11-20T15:15:33.000Z</time>
      </trkpt>
      <trkpt lat="43.5335" lon="6.39623">
        <ele>305.5</ele>
        <time>2024-11-20T15:15:46.000Z</time>
      </trkpt>
      <trkpt lat="43.53358" lon="6.39627">
        <ele>305.2</ele>
        <time>2024-11-20T15:15:59.000Z</time>
      </trkpt>
      <trkpt lat="43.53365" lon="6.39633">
        <ele>304.7</ele>
        <time>2024-11-20T15:16:10.000Z</time>
      </trkpt>
      <trkpt lat="43.53374" lon="6.39634">
        <ele>304.6</ele>
        <time>2024-11-20T15:16:34.000Z</time>
      </trkpt>
      <trkpt lat="43.53375" lon="6.39635">
        <ele>304.6</ele>
        <time>2024-11-20T15:16:35.000Z</time>
      </trkpt>
      <trkpt lat="43.53382" lon="6.39641">
        <ele>304.8</ele>
        <time>2024-11-20T15:17:41.000Z</time>
      </trkpt>
      <trkpt lat="43.53399" lon="6.39646">
        <ele>305.7</ele>
        <time>2024-11-20T15:20:16.000Z</time>
      </trkpt>
      <trkpt lat="43.53399" lon="6.39645">
        <ele>305.7</ele>
        <time>2024-11-20T15:20:17.000Z</time>
      </trkpt>
      <trkpt lat="43.53408" lon="6.39627">
        <ele>306.1</ele>
        <time>2024-11-20T15:20:36.000Z</time>
      </trkpt>
      <trkpt lat="43.5341" lon="6.39615">
        <ele>306.3</ele>
        <time>2024-11-20T15:20:44.000Z</time>
      </trkpt>
      <trkpt lat="43.53417" lon="6.39609">
        <ele>306.6</ele>
        <time>2024-11-20T15:20:52.000Z</time>
      </trkpt>
      <trkpt lat="43.5342" lon="6.39598">
        <ele>307.2</ele>
        <time>2024-11-20T15:21:10.000Z</time>
      </trkpt>
      <trkpt lat="43.53425" lon="6.39589">
        <ele>307.3</ele>
        <time>2024-11-20T15:21:21.000Z</time>
      </trkpt>
      <trkpt lat="43.53426" lon="6.39588">
        <ele>307.4</ele>
        <time>2024-11-20T15:21:22.000Z</time>
      </trkpt>
      <trkpt lat="43.53435" lon="6.39569">
        <ele>308</ele>
        <time>2024-11-20T15:21:39.000Z</time>
      </trkpt>
      <trkpt lat="43.53439" lon="6.39559">
        <ele>308.3</ele>
        <time>2024-11-20T15:21:48.000Z</time>
      </trkpt>
      <trkpt lat="43.53444" lon="6.3955">
        <ele>308.8</ele>
        <time>2024-11-20T15:22:01.000Z</time>
      </trkpt>
      <trkpt lat="43.53448" lon="6.39539">
        <ele>309.4</ele>
        <time>2024-11-20T15:22:10.000Z</time>
      </trkpt>
      <trkpt lat="43.53448" lon="6.39527">
        <ele>311.7</ele>
        <time>2024-11-20T15:22:43.000Z</time>
      </trkpt>
      <trkpt lat="43.53448" lon="6.39526">
        <ele>311.8</ele>
        <time>2024-11-20T15:22:44.000Z</time>
      </trkpt>
      <trkpt lat="43.53458" lon="6.39508">
        <ele>312.7</ele>
        <time>2024-11-20T15:23:03.000Z</time>
      </trkpt>
      <trkpt lat="43.53459" lon="6.39496">
        <ele>312.9</ele>
        <time>2024-11-20T15:23:12.000Z</time>
      </trkpt>
      <trkpt lat="43.53462" lon="6.39484">
        <ele>313.7</ele>
        <time>2024-11-20T15:23:29.000Z</time>
      </trkpt>
      <trkpt lat="43.53463" lon="6.39473">
        <ele>314</ele>
        <time>2024-11-20T15:23:42.000Z</time>
      </trkpt>
      <trkpt lat="43.53464" lon="6.39461">
        <ele>314.3</ele>
        <time>2024-11-20T15:23:52.000Z</time>
      </trkpt>
      <trkpt lat="43.53464" lon="6.3946">
        <ele>314.3</ele>
        <time>2024-11-20T15:23:53.000Z</time>
      </trkpt>
      <trkpt lat="43.53471" lon="6.39441">
        <ele>315.1</ele>
        <time>2024-11-20T15:24:08.000Z</time>
      </trkpt>
      <trkpt lat="43.53474" lon="6.39429">
        <ele>315.7</ele>
        <time>2024-11-20T15:24:20.000Z</time>
      </trkpt>
      <trkpt lat="43.53475" lon="6.39418">
        <ele>315.9</ele>
        <time>2024-11-20T15:24:27.000Z</time>
      </trkpt>
      <trkpt lat="43.53474" lon="6.39406">
        <ele>316.6</ele>
        <time>2024-11-20T15:24:37.000Z</time>
      </trkpt>
      <trkpt lat="43.53478" lon="6.39397">
        <ele>317.2</ele>
        <time>2024-11-20T15:24:54.000Z</time>
      </trkpt>
      <trkpt lat="43.53479" lon="6.39396">
        <ele>317.2</ele>
        <time>2024-11-20T15:24:55.000Z</time>
      </trkpt>
      <trkpt lat="43.53478" lon="6.39373">
        <ele>317.8</ele>
        <time>2024-11-20T15:25:11.000Z</time>
      </trkpt>
      <trkpt lat="43.53481" lon="6.39362">
        <ele>318.3</ele>
        <time>2024-11-20T15:25:30.000Z</time>
      </trkpt>
      <trkpt lat="43.53483" lon="6.3935">
        <ele>318.8</ele>
        <time>2024-11-20T15:25:38.000Z</time>
      </trkpt>
      <trkpt lat="43.53484" lon="6.39338">
        <ele>319.3</ele>
        <time>2024-11-20T15:25:47.000Z</time>
      </trkpt>
      <trkpt lat="43.53486" lon="6.39327">
        <ele>319.6</ele>
        <time>2024-11-20T15:25:54.000Z</time>
      </trkpt>
      <trkpt lat="43.53488" lon="6.39315">
        <ele>320.1</ele>
        <time>2024-11-20T15:26:01.000Z</time>
      </trkpt>
      <trkpt lat="43.53489" lon="6.39313">
        <ele>320.2</ele>
        <time>2024-11-20T15:26:02.000Z</time>
      </trkpt>
      <trkpt lat="43.53495" lon="6.39295">
        <ele>321</ele>
        <time>2024-11-20T15:26:13.000Z</time>
      </trkpt>
      <trkpt lat="43.53496" lon="6.39284">
        <ele>321.3</ele>
        <time>2024-11-20T15:26:19.000Z</time>
      </trkpt>
      <trkpt lat="43.53499" lon="6.39272">
        <ele>321.6</ele>
        <time>2024-11-20T15:26:26.000Z</time>
      </trkpt>
      <trkpt lat="43.53503" lon="6.39263">
        <ele>321.8</ele>
        <time>2024-11-20T15:26:34.000Z</time>
      </trkpt>
      <trkpt lat="43.53507" lon="6.39252">
        <ele>322</ele>
        <time>2024-11-20T15:26:42.000Z</time>
      </trkpt>
      <trkpt lat="43.53511" lon="6.39241">
        <ele>322.1</ele>
        <time>2024-11-20T15:26:50.000Z</time>
      </trkpt>
      <trkpt lat="43.53516" lon="6.39233">
        <ele>322.2</ele>
        <time>2024-11-20T15:26:58.000Z</time>
      </trkpt>
      <trkpt lat="43.53519" lon="6.39222">
        <ele>322.3</ele>
        <time>2024-11-20T15:27:05.000Z</time>
      </trkpt>
      <trkpt lat="43.53519" lon="6.39221">
        <ele>322.3</ele>
        <time>2024-11-20T15:27:06.000Z</time>
      </trkpt>
      <trkpt lat="43.5353" lon="6.39204">
        <ele>322.5</ele>
        <time>2024-11-20T15:27:20.000Z</time>
      </trkpt>
    </trkseg>
  </trk>
</gpx>